Observation data for Persimmon Gap on 05/13/2018      Previous  Date  Next       Current Mesonet Observations  Soil Data  Daily Summary Page  Observations in Plain Language
KPG1 130500Z 04015KT 27/15 A2995 RMK A01 T02730146  RH  046%=      5-min Rain = 0
KPG1 130501Z 03015KT 27/15 A2995 RMK A01 T02730146  RH  046%=      5-min Rain = 0
KPG1 130502Z 03015KT 27/15 A2995 RMK A01 T02720145  RH  046%=      5-min Rain = 0
KPG1 130503Z 04016KT 27/15 A2995 RMK A01 T02720146  RH  046%=      5-min Rain = 0
KPG1 130504Z 04016KT 27/15 A2995 RMK A01 T02720146  RH  046%=      5-min Rain = 0
KPG1 130505Z 04016KT 27/15 A2995 RMK A01 T02720146  RH  046%=      5-min Rain = 0
KPG1 130506Z 04014KT 27/15 A2995 RMK A01 T02720146  RH  046%=      5-min Rain = 0
KPG1 130507Z 04014KT 27/15 A2995 RMK A01 T02720145  RH  046%=      5-min Rain = 0
KPG1 130508Z 04014KT 27/15 A2995 RMK A01 T02720146  RH  046%=      5-min Rain = 0
KPG1 130509Z 04012KT 27/15 A2995 RMK A01 T02720146  RH  046%=      5-min Rain = 0
KPG1 130510Z 04014KT 27/15 A2995 RMK A01 T02710146  RH  046%=      5-min Rain = 0
KPG1 130511Z 04014KT 27/15 A2995 RMK A01 T02710146  RH  046%=      5-min Rain = 0
KPG1 130512Z 04015KT 27/15 A2995 RMK A01 T02710146  RH  046%=      5-min Rain = 0
KPG1 130513Z 04015KT 27/15 A2996 RMK A01 T02710146  RH  046%=      5-min Rain = 0
KPG1 130514Z 03014KT 27/15 A2996 RMK A01 T02710146  RH  046%=      5-min Rain = 0
KPG1 130515Z 03014KT 27/15 A2996 RMK A01 T02710146  RH  046%=      5-min Rain = 0
KPG1 130516Z 03014KT 27/15 A2996 RMK A01 T02710146  RH  046%=      5-min Rain = 0
KPG1 130517Z 03013KT 27/15 A2996 RMK A01 T02710146  RH  046%=      5-min Rain = 0
KPG1 130518Z 03014KT 27/15 A2995 RMK A01 T02710146  RH  046%=      5-min Rain = 0
KPG1 130519Z 04013KT 27/15 A2995 RMK A01 T02710147  RH  047%=      5-min Rain = 0
KPG1 130520Z 03015KT 27/15 A2995 RMK A01 T02700146  RH  047%=      5-min Rain = 0
KPG1 130521Z 03017KT 27/15 A2995 RMK A01 T02700147  RH  047%=      5-min Rain = 0
KPG1 130522Z 04015KT 27/15 A2995 RMK A01 T02700147  RH  047%=      5-min Rain = 0
KPG1 130523Z 04014KT 27/15 A2995 RMK A01 T02700147  RH  047%=      5-min Rain = 0
KPG1 130524Z 03013KT 27/15 A2995 RMK A01 T02700147  RH  047%=      5-min Rain = 0
KPG1 130525Z 03015KT 27/15 A2995 RMK A01 T02690147  RH  047%=      5-min Rain = 0
KPG1 130526Z 03014KT 27/15 A2995 RMK A01 T02690147  RH  047%=      5-min Rain = 0
KPG1 130527Z 03015KT 27/15 A2995 RMK A01 T02690147  RH  047%=      5-min Rain = 0
KPG1 130528Z 04015KT 27/15 A2995 RMK A01 T02690147  RH  047%=      5-min Rain = 0
KPG1 130529Z 04014KT 27/15 A2995 RMK A01 T02690147  RH  047%=      5-min Rain = 0
KPG1 130530Z 04015KT 27/15 A2995 RMK A01 T02690148  RH  047%=      5-min Rain = 0
KPG1 130531Z 03015KT 27/15 A2995 RMK A01 T02680147  RH  047%=      5-min Rain = 0
KPG1 130532Z 03013KT 27/15 A2995 RMK A01 T02680147  RH  048%=      5-min Rain = 0
KPG1 130533Z 03014KT 27/15 A2995 RMK A01 T02680147  RH  048%=      5-min Rain = 0
KPG1 130534Z 03014KT 27/15 A2995 RMK A01 T02670147  RH  048%=      5-min Rain = 0
KPG1 130535Z 03014KT 27/15 A2995 RMK A01 T02670147  RH  048%=      5-min Rain = 0
KPG1 130536Z 03013KT 27/15 A2995 RMK A01 T02670147  RH  048%=      5-min Rain = 0
KPG1 130537Z 03014KT 27/15 A2995 RMK A01 T02660147  RH  048%=      5-min Rain = 0
KPG1 130538Z 03012KT 27/15 A2995 RMK A01 T02670147  RH  048%=      5-min Rain = 0
KPG1 130539Z 03015KT 27/15 A2995 RMK A01 T02660147  RH  048%=      5-min Rain = 0
KPG1 130540Z 03014KT 27/15 A2995 RMK A01 T02660147  RH  048%=      5-min Rain = 0
KPG1 130541Z 03014KT 27/15 A2995 RMK A01 T02660148  RH  048%=      5-min Rain = 0
KPG1 130542Z 03012KT 27/15 A2995 RMK A01 T02660147  RH  048%=      5-min Rain = 0
KPG1 130543Z 03015KT 27/15 A2995 RMK A01 T02660147  RH  048%=      5-min Rain = 0
KPG1 130544Z 03014KT 27/15 A2995 RMK A01 T02650148  RH  048%=      5-min Rain = 0
KPG1 130545Z 03013KT 27/15 A2995 RMK A01 T02650148  RH  048%=      5-min Rain = 0
KPG1 130546Z 03014KT 27/15 A2995 RMK A01 T02650147  RH  048%=      5-min Rain = 0
KPG1 130547Z 03014KT 27/15 A2995 RMK A01 T02650147  RH  048%=      5-min Rain = 0
KPG1 130548Z 03012KT 27/15 A2995 RMK A01 T02650147  RH  048%=      5-min Rain = 0
KPG1 130549Z 03013KT 27/15 A2995 RMK A01 T02650147  RH  049%=      5-min Rain = 0
KPG1 130550Z 03012KT 26/15 A2995 RMK A01 T02640147  RH  049%=      5-min Rain = 0
KPG1 130551Z 03013KT 26/15 A2995 RMK A01 T02640147  RH  049%=      5-min Rain = 0
KPG1 130552Z 03014KT 26/15 A2995 RMK A01 T02630147  RH  049%=      5-min Rain = 0
KPG1 130553Z 03013KT 26/15 A2995 RMK A01 T02630147  RH  049%=      5-min Rain = 0
KPG1 130554Z 03014KT 26/15 A2995 RMK A01 T02630147  RH  049%=      5-min Rain = 0
KPG1 130555Z 03013KT 26/15 A2995 RMK A01 T02630147  RH  049%=      5-min Rain = 0
KPG1 130556Z 02013KT 26/15 A2995 RMK A01 T02630147  RH  049%=      5-min Rain = 0
KPG1 130557Z 02014KT 26/15 A2995 RMK A01 T02620147  RH  049%=      5-min Rain = 0
KPG1 130558Z 02015KT 26/15 A2995 RMK A01 T02620147  RH  049%=      5-min Rain = 0
KPG1 130559Z 03014KT 26/15 A2995 RMK A01 T02620147  RH  049%=      5-min Rain = 0
KPG1 130600Z 02013KT 26/15 A2995 RMK A01 T02620147  RH  049%=      5-min Rain = 0
KPG1 130601Z 02013KT 26/15 A2995 RMK A01 T02620147  RH  049%=      5-min Rain = 0
KPG1 130602Z 02012KT 26/15 A2995 RMK A01 T02620147  RH  049%=      5-min Rain = 0
KPG1 130603Z 03012KT 26/15 A2995 RMK A01 T02620147  RH  049%=      5-min Rain = 0
KPG1 130604Z 02013KT 26/15 A2995 RMK A01 T02620147  RH  049%=      5-min Rain = 0
KPG1 130605Z 02014KT 26/15 A2995 RMK A01 T02620147  RH  049%=      5-min Rain = 0
KPG1 130606Z 02013KT 26/15 A2995 RMK A01 T02620148  RH  049%=      5-min Rain = 0
KPG1 130607Z 03014KT 26/15 A2995 RMK A01 T02620148  RH  049%=      5-min Rain = 0
KPG1 130608Z 03013KT 26/15 A2995 RMK A01 T02620147  RH  049%=      5-min Rain = 0
KPG1 130609Z 02013KT 26/15 A2995 RMK A01 T02610147  RH  049%=      5-min Rain = 0
KPG1 130610Z 02013KT 26/15 A2995 RMK A01 T02610146  RH  049%=      5-min Rain = 0
KPG1 130611Z 02014KT 26/15 A2995 RMK A01 T02600147  RH  050%=      5-min Rain = 0
KPG1 130612Z 02013KT 26/15 A2995 RMK A01 T02600147  RH  050%=      5-min Rain = 0
KPG1 130613Z 03012KT 26/15 A2995 RMK A01 T02600147  RH  050%=      5-min Rain = 0
KPG1 130614Z 03014KT 26/15 A2995 RMK A01 T02600147  RH  050%=      5-min Rain = 0
KPG1 130615Z 03012KT 26/15 A2995 RMK A01 T02600147  RH  050%=      5-min Rain = 0
KPG1 130616Z 03012KT 26/15 A2995 RMK A01 T02600146  RH  050%=      5-min Rain = 0
KPG1 130617Z 02012KT 26/15 A2995 RMK A01 T02590146  RH  050%=      5-min Rain = 0
KPG1 130618Z 02016KT 26/15 A2995 RMK A01 T02590147  RH  050%=      5-min Rain = 0
KPG1 130619Z 02017KT 26/15 A2995 RMK A01 T02590147  RH  050%=      5-min Rain = 0
KPG1 130620Z 03012KT 26/15 A2995 RMK A01 T02600147  RH  050%=      5-min Rain = 0
KPG1 130621Z 03012KT 26/15 A2995 RMK A01 T02600147  RH  050%=      5-min Rain = 0
KPG1 130622Z 03013KT 26/15 A2995 RMK A01 T02600146  RH  050%=      5-min Rain = 0
KPG1 130623Z 04012KT 26/15 A2995 RMK A01 T02590146  RH  050%=      5-min Rain = 0
KPG1 130624Z 04013KT 26/15 A2995 RMK A01 T02590147  RH  050%=      5-min Rain = 0
KPG1 130625Z 03012KT 26/15 A2995 RMK A01 T02590147  RH  050%=      5-min Rain = 0
KPG1 130626Z 03012KT 26/15 A2995 RMK A01 T02590146  RH  050%=      5-min Rain = 0
KPG1 130627Z 02011KT 26/15 A2995 RMK A01 T02580146  RH  050%=      5-min Rain = 0
KPG1 130628Z 02010KT 26/15 A2995 RMK A01 T02580146  RH  050%=      5-min Rain = 0
KPG1 130629Z 03011KT 26/15 A2995 RMK A01 T02570146  RH  050%=      5-min Rain = 0
KPG1 130630Z 02011KT 26/15 A2995 RMK A01 T02570146  RH  050%=      5-min Rain = 0
KPG1 130631Z 02011KT 26/15 A2995 RMK A01 T02570146  RH  050%=      5-min Rain = 0
KPG1 130632Z 03010KT 26/15 A2995 RMK A01 T02570146  RH  050%=      5-min Rain = 0
KPG1 130633Z 03010KT 26/15 A2995 RMK A01 T02570146  RH  050%=      5-min Rain = 0
KPG1 130634Z 01010KT 26/15 A2995 RMK A01 T02560146  RH  050%=      5-min Rain = 0
KPG1 130635Z 01011KT 26/15 A2996 RMK A01 T02570147  RH  051%=      5-min Rain = 0
KPG1 130636Z 02011KT 26/15 A2996 RMK A01 T02570147  RH  051%=      5-min Rain = 0
KPG1 130637Z 02009KT 26/15 A2996 RMK A01 T02580147  RH  050%=      5-min Rain = 0
KPG1 130638Z 03009KT 26/15 A2996 RMK A01 T02580147  RH  050%=      5-min Rain = 0
KPG1 130639Z 02010KT 26/15 A2996 RMK A01 T02580147  RH  050%=      5-min Rain = 0
KPG1 130640Z 01011KT 26/15 A2996 RMK A01 T02580147  RH  050%=      5-min Rain = 0
KPG1 130641Z 01012KT 26/15 A2995 RMK A01 T02580147  RH  050%=      5-min Rain = 0
KPG1 130642Z 02011KT 26/15 A2995 RMK A01 T02580147  RH  050%=      5-min Rain = 0
KPG1 130643Z 01014KT 26/15 A2995 RMK A01 T02580148  RH  051%=      5-min Rain = 0
KPG1 130644Z 01014KT 26/15 A2995 RMK A01 T02580148  RH  051%=      5-min Rain = 0
KPG1 130645Z 01013KT 26/15 A2995 RMK A01 T02580148  RH  051%=      5-min Rain = 0
KPG1 130646Z 02014KT 26/15 A2995 RMK A01 T02580148  RH  051%=      5-min Rain = 0
KPG1 130647Z 02012KT 26/15 A2995 RMK A01 T02580148  RH  051%=      5-min Rain = 0
KPG1 130648Z 02013KT 26/15 A2995 RMK A01 T02570148  RH  051%=      5-min Rain = 0
KPG1 130649Z 01012KT 26/15 A2995 RMK A01 T02570148  RH  051%=      5-min Rain = 0
KPG1 130650Z 01011KT 26/15 A2995 RMK A01 T02570148  RH  051%=      5-min Rain = 0
KPG1 130651Z 02013KT 26/15 A2995 RMK A01 T02580148  RH  051%=      5-min Rain = 0
KPG1 130652Z 02012KT 26/15 A2995 RMK A01 T02570148  RH  051%=      5-min Rain = 0
KPG1 130653Z 02012KT 26/15 A2995 RMK A01 T02570148  RH  051%=      5-min Rain = 0
KPG1 130654Z 02013KT 26/15 A2995 RMK A01 T02570148  RH  051%=      5-min Rain = 0
KPG1 130655Z 02013KT 26/15 A2995 RMK A01 T02560148  RH  051%=      5-min Rain = 0
KPG1 130656Z 03010KT 26/15 A2995 RMK A01 T02570149  RH  051%=      5-min Rain = 0
KPG1 130657Z 03012KT 26/15 A2995 RMK A01 T02560148  RH  051%=      5-min Rain = 0
KPG1 130658Z 03012KT 26/15 A2995 RMK A01 T02560148  RH  051%=      5-min Rain = 0
KPG1 130659Z 03012KT 26/15 A2995 RMK A01 T02550147  RH  051%=      5-min Rain = 0
KPG1 130700Z 03012KT 25/15 A2995 RMK A01 T02540147  RH  052%=      5-min Rain = 0
KPG1 130701Z 03012KT 25/15 A2995 RMK A01 T02540147  RH  052%=      5-min Rain = 0
KPG1 130702Z 03011KT 25/15 A2994 RMK A01 T02540148  RH  052%=      5-min Rain = 0
KPG1 130703Z 04013KT 25/15 A2994 RMK A01 T02530148  RH  052%=      5-min Rain = 0
KPG1 130704Z 03012KT 25/15 A2994 RMK A01 T02530148  RH  052%=      5-min Rain = 0
KPG1 130705Z 03012KT 25/15 A2994 RMK A01 T02530148  RH  052%=      5-min Rain = 0
KPG1 130706Z 03012KT 25/15 A2994 RMK A01 T02530148  RH  052%=      5-min Rain = 0
KPG1 130707Z 04012KT 25/15 A2994 RMK A01 T02530147  RH  052%=      5-min Rain = 0
KPG1 130708Z 04011KT 25/15 A2994 RMK A01 T02530148  RH  052%=      5-min Rain = 0
KPG1 130709Z 04011KT 25/15 A2994 RMK A01 T02530148  RH  052%=      5-min Rain = 0
KPG1 130710Z 04012KT 25/15 A2994 RMK A01 T02530148  RH  052%=      5-min Rain = 0
KPG1 130711Z 04012KT 25/15 A2994 RMK A01 T02530148  RH  052%=      5-min Rain = 0
KPG1 130712Z 04011KT 25/15 A2994 RMK A01 T02530148  RH  052%=      5-min Rain = 0
KPG1 130713Z 03011KT 25/15 A2994 RMK A01 T02530148  RH  052%=      5-min Rain = 0
KPG1 130714Z 03011KT 25/15 A2994 RMK A01 T02530147  RH  052%=      5-min Rain = 0
KPG1 130715Z 03011KT 25/15 A2994 RMK A01 T02520147  RH  052%=      5-min Rain = 0
KPG1 130716Z 02012KT 25/15 A2994 RMK A01 T02510147  RH  052%=      5-min Rain = 0
KPG1 130717Z 02012KT 25/15 A2994 RMK A01 T02510148  RH  053%=      5-min Rain = 0
KPG1 130718Z 02013KT 25/15 A2994 RMK A01 T02520148  RH  053%=      5-min Rain = 0
KPG1 130719Z 02014KT 25/15 A2994 RMK A01 T02520148  RH  052%=      5-min Rain = 0
KPG1 130720Z 02014KT 25/15 A2994 RMK A01 T02530149  RH  052%=      5-min Rain = 0
KPG1 130721Z 02014KT 25/15 A2994 RMK A01 T02530149  RH  052%=      5-min Rain = 0
KPG1 130722Z 02014KT 25/15 A2993 RMK A01 T02530148  RH  052%=      5-min Rain = 0
KPG1 130723Z 02014KT 25/15 A2993 RMK A01 T02530148  RH  052%=      5-min Rain = 0
KPG1 130724Z 02014KT 25/15 A2993 RMK A01 T02530149  RH  052%=      5-min Rain = 0
KPG1 130725Z 02013KT 25/15 A2993 RMK A01 T02520148  RH  052%=      5-min Rain = 0
KPG1 130726Z 02014KT 25/15 A2993 RMK A01 T02520148  RH  053%=      5-min Rain = 0
KPG1 130727Z 02014KT 25/15 A2993 RMK A01 T02510148  RH  053%=      5-min Rain = 0
KPG1 130728Z 02014KT 25/15 A2993 RMK A01 T02510148  RH  053%=      5-min Rain = 0
KPG1 130729Z 02013KT 25/15 A2993 RMK A01 T02510149  RH  053%=      5-min Rain = 0
KPG1 130730Z 02013KT 25/15 A2993 RMK A01 T02510148  RH  053%=      5-min Rain = 0
KPG1 130731Z 02013KT 25/15 A2993 RMK A01 T02510148  RH  053%=      5-min Rain = 0
KPG1 130732Z 02013KT 25/15 A2993 RMK A01 T02510148  RH  053%=      5-min Rain = 0
KPG1 130733Z 02013KT 25/15 A2993 RMK A01 T02510148  RH  053%=      5-min Rain = 0
KPG1 130734Z 02012KT 25/15 A2993 RMK A01 T02510149  RH  053%=      5-min Rain = 0
KPG1 130735Z 02012KT 25/15 A2993 RMK A01 T02510149  RH  053%=      5-min Rain = 0
KPG1 130736Z 02013KT 25/15 A2993 RMK A01 T02510149  RH  053%=      5-min Rain = 0
KPG1 130737Z 02012KT 25/15 A2993 RMK A01 T02500149  RH  053%=      5-min Rain = 0
KPG1 130738Z 03012KT 25/15 A2993 RMK A01 T02510149  RH  053%=      5-min Rain = 0
KPG1 130739Z 02010KT 25/15 A2993 RMK A01 T02510149  RH  053%=      5-min Rain = 0
KPG1 130740Z 03010KT 25/15 A2993 RMK A01 T02500148  RH  053%=      5-min Rain = 0
KPG1 130741Z 02011KT 25/15 A2993 RMK A01 T02490148  RH  053%=      5-min Rain = 0
KPG1 130742Z 03011KT 25/15 A2993 RMK A01 T02490148  RH  054%=      5-min Rain = 0
KPG1 130743Z 03010KT 25/15 A2993 RMK A01 T02480148  RH  054%=      5-min Rain = 0
KPG1 130744Z 03011KT 25/15 A2993 RMK A01 T02480148  RH  054%=      5-min Rain = 0
KPG1 130745Z 03011KT 25/15 A2993 RMK A01 T02480149  RH  054%=      5-min Rain = 0
KPG1 130746Z 03010KT 25/15 A2993 RMK A01 T02480148  RH  054%=      5-min Rain = 0
KPG1 130747Z 03011KT 25/15 A2993 RMK A01 T02480148  RH  054%=      5-min Rain = 0
KPG1 130748Z 04010KT 25/15 A2993 RMK A01 T02480148  RH  054%=      5-min Rain = 0
KPG1 130749Z 03011KT 25/15 A2993 RMK A01 T02470148  RH  054%=      5-min Rain = 0
KPG1 130750Z 03012KT 25/15 A2993 RMK A01 T02480149  RH  054%=      5-min Rain = 0
KPG1 130751Z 02012KT 25/15 A2993 RMK A01 T02490149  RH  054%=      5-min Rain = 0
KPG1 130752Z 01013KT 25/15 A2993 RMK A01 T02500149  RH  054%=      5-min Rain = 0
KPG1 130753Z 01012KT 25/15 A2993 RMK A01 T02500149  RH  053%=      5-min Rain = 0
KPG1 130754Z 01013KT 25/15 A2993 RMK A01 T02500149  RH  053%=      5-min Rain = 0
KPG1 130755Z 01014KT 25/15 A2993 RMK A01 T02500149  RH  053%=      5-min Rain = 0
KPG1 130756Z 01013KT 25/15 A2993 RMK A01 T02510149  RH  053%=      5-min Rain = 0
KPG1 130757Z 01013KT 25/15 A2993 RMK A01 T02510149  RH  053%=      5-min Rain = 0
KPG1 130758Z 01015KT 25/15 A2993 RMK A01 T02510149  RH  053%=      5-min Rain = 0
KPG1 130759Z 02014KT 25/15 A2993 RMK A01 T02510149  RH  053%=      5-min Rain = 0
KPG1 130800Z 01013KT 25/15 A2993 RMK A01 T02510149  RH  053%=      5-min Rain = 0
KPG1 130801Z 02012KT 25/15 A2993 RMK A01 T02510149  RH  053%=      5-min Rain = 0
KPG1 130802Z 01013KT 25/15 A2993 RMK A01 T02510149  RH  053%=      5-min Rain = 0
KPG1 130803Z 01011KT 25/15 A2993 RMK A01 T02510149  RH  053%=      5-min Rain = 0
KPG1 130804Z 01011KT 25/15 A2993 RMK A01 T02510149  RH  053%=      5-min Rain = 0
KPG1 130805Z 02010KT 25/15 A2993 RMK A01 T02510149  RH  053%=      5-min Rain = 0
KPG1 130806Z 02010KT 25/15 A2993 RMK A01 T02510149  RH  053%=      5-min Rain = 0
KPG1 130807Z 02010KT 25/15 A2993 RMK A01 T02510149  RH  053%=      5-min Rain = 0
KPG1 130808Z 02013KT 25/15 A2993 RMK A01 T02510149  RH  053%=      5-min Rain = 0
KPG1 130809Z 02011KT 25/15 A2993 RMK A01 T02510149  RH  053%=      5-min Rain = 0
KPG1 130810Z 01012KT 25/15 A2993 RMK A01 T02510149  RH  053%=      5-min Rain = 0
KPG1 130811Z 01013KT 25/15 A2993 RMK A01 T02510149  RH  053%=      5-min Rain = 0
KPG1 130812Z 01014KT 25/15 A2992 RMK A01 T02510148  RH  053%=      5-min Rain = 0
KPG1 130813Z 01014KT 25/15 A2992 RMK A01 T02510149  RH  053%=      5-min Rain = 0
KPG1 130814Z 01015KT 25/15 A2992 RMK A01 T02510148  RH  053%=      5-min Rain = 0
KPG1 130815Z 01013KT 25/15 A2992 RMK A01 T02520148  RH  053%=      5-min Rain = 0
KPG1 130816Z 02014KT 25/15 A2992 RMK A01 T02520148  RH  053%=      5-min Rain = 0
KPG1 130817Z 02014KT 25/15 A2992 RMK A01 T02520148  RH  053%=      5-min Rain = 0
KPG1 130818Z 02013KT 25/15 A2992 RMK A01 T02520148  RH  053%=      5-min Rain = 0
KPG1 130819Z 01012KT 25/15 A2992 RMK A01 T02520148  RH  053%=      5-min Rain = 0
KPG1 130820Z 02013KT 25/15 A2992 RMK A01 T02510148  RH  053%=      5-min Rain = 0
KPG1 130821Z 01013KT 25/15 A2992 RMK A01 T02510148  RH  053%=      5-min Rain = 0
KPG1 130822Z 01014KT 25/15 A2992 RMK A01 T02520148  RH  053%=      5-min Rain = 0
KPG1 130823Z 01015KT 25/15 A2992 RMK A01 T02510148  RH  053%=      5-min Rain = 0
KPG1 130824Z 02013KT 25/15 A2992 RMK A01 T02510148  RH  053%=      5-min Rain = 0
KPG1 130825Z 02013KT 25/15 A2992 RMK A01 T02510148  RH  053%=      5-min Rain = 0
KPG1 130826Z 02011KT 25/15 A2992 RMK A01 T02510147  RH  052%=      5-min Rain = 0
KPG1 130827Z 02011KT 25/15 A2992 RMK A01 T02510148  RH  053%=      5-min Rain = 0
KPG1 130828Z 02012KT 25/15 A2992 RMK A01 T02510148  RH  053%=      5-min Rain = 0
KPG1 130829Z 02012KT 25/15 A2992 RMK A01 T02510148  RH  053%=      5-min Rain = 0
KPG1 130830Z 02012KT 25/15 A2992 RMK A01 T02510148  RH  053%=      5-min Rain = 0
KPG1 130831Z 02012KT 25/15 A2992 RMK A01 T02510148  RH  053%=      5-min Rain = 0
KPG1 130832Z 02012KT 25/15 A2992 RMK A01 T02500148  RH  053%=      5-min Rain = 0
KPG1 130833Z 03011KT 25/15 A2992 RMK A01 T02510148  RH  053%=      5-min Rain = 0
KPG1 130834Z 02012KT 25/15 A2992 RMK A01 T02500148  RH  053%=      5-min Rain = 0
KPG1 130835Z 02011KT 25/15 A2992 RMK A01 T02500148  RH  053%=      5-min Rain = 0
KPG1 130836Z 02011KT 25/15 A2992 RMK A01 T02500148  RH  053%=      5-min Rain = 0
KPG1 130837Z 02011KT 25/15 A2992 RMK A01 T02500147  RH  053%=      5-min Rain = 0
KPG1 130838Z 02013KT 25/15 A2992 RMK A01 T02500148  RH  053%=      5-min Rain = 0
KPG1 130839Z 02011KT 25/15 A2992 RMK A01 T02500148  RH  053%=      5-min Rain = 0
KPG1 130840Z 02013KT 25/15 A2992 RMK A01 T02500147  RH  053%=      5-min Rain = 0
KPG1 130841Z 01012KT 25/15 A2992 RMK A01 T02510148  RH  053%=      5-min Rain = 0
KPG1 130842Z 01013KT 25/15 A2992 RMK A01 T02500148  RH  053%=      5-min Rain = 0
KPG1 130843Z 00014KT 25/15 A2992 RMK A01 T02500148  RH  053%=      5-min Rain = 0
KPG1 130844Z 00013KT 25/15 A2992 RMK A01 T02500148  RH  053%=      5-min Rain = 0
KPG1 130845Z 01012KT 25/15 A2992 RMK A01 T02510147  RH  053%=      5-min Rain = 0
KPG1 130846Z 02012KT 25/15 A2992 RMK A01 T02500147  RH  053%=      5-min Rain = 0
KPG1 130847Z 02009KT 25/15 A2992 RMK A01 T02510148  RH  053%=      5-min Rain = 0
KPG1 130848Z 02012KT 25/15 A2992 RMK A01 T02510148  RH  053%=      5-min Rain = 0
KPG1 130849Z 01012KT 25/15 A2992 RMK A01 T02510147  RH  053%=      5-min Rain = 0
KPG1 130850Z 02011KT 25/15 A2993 RMK A01 T02510148  RH  053%=      5-min Rain = 0
KPG1 130851Z 03009KT 25/15 A2993 RMK A01 T02510147  RH  053%=      5-min Rain = 0
KPG1 130852Z 03011KT 25/15 A2993 RMK A01 T02510147  RH  053%=      5-min Rain = 0
KPG1 130853Z 04010G15KT 25/15 A2993 RMK A01 T02510148  RH  053%=      5-min Rain = 0
KPG1 130854Z 04010KT 25/15 A2992 RMK A01 T02510148  RH  053%=      5-min Rain = 0
KPG1 130855Z 02011KT 25/15 A2993 RMK A01 T02510148  RH  053%=      5-min Rain = 0
KPG1 130856Z 02011KT 25/15 A2993 RMK A01 T02510148  RH  053%=      5-min Rain = 0
KPG1 130857Z 02011KT 25/15 A2993 RMK A01 T02510148  RH  053%=      5-min Rain = 0
KPG1 130858Z 02010KT 25/15 A2993 RMK A01 T02510148  RH  053%=      5-min Rain = 0
KPG1 130859Z 02011KT 25/15 A2993 RMK A01 T02510148  RH  053%=      5-min Rain = 0
KPG1 130900Z 01012KT 25/15 A2993 RMK A01 T02510148  RH  053%=      5-min Rain = 0
KPG1 130901Z 01011KT 25/15 A2993 RMK A01 T02510147  RH  053%=      5-min Rain = 0
KPG1 130902Z 00012KT 25/15 A2993 RMK A01 T02510147  RH  053%=      5-min Rain = 0
KPG1 130903Z 01011KT 25/15 A2993 RMK A01 T02510147  RH  053%=      5-min Rain = 0
KPG1 130904Z 02013KT 25/15 A2993 RMK A01 T02510148  RH  053%=      5-min Rain = 0
KPG1 130905Z 02012KT 25/15 A2993 RMK A01 T02510148  RH  053%=      5-min Rain = 0
KPG1 130906Z 02011KT 25/15 A2993 RMK A01 T02510147  RH  053%=      5-min Rain = 0
KPG1 130907Z 03010KT 25/15 A2993 RMK A01 T02510147  RH  053%=      5-min Rain = 0
KPG1 130908Z 03010KT 25/15 A2993 RMK A01 T02510147  RH  053%=      5-min Rain = 0
KPG1 130909Z 03009KT 25/15 A2993 RMK A01 T02510147  RH  053%=      5-min Rain = 0
KPG1 130910Z 02010KT 25/15 A2993 RMK A01 T02510148  RH  053%=      5-min Rain = 0
KPG1 130911Z 02010KT 25/15 A2993 RMK A01 T02500147  RH  053%=      5-min Rain = 0
KPG1 130912Z 01009KT 25/15 A2993 RMK A01 T02500147  RH  053%=      5-min Rain = 0
KPG1 130913Z 01010KT 25/15 A2993 RMK A01 T02500147  RH  053%=      5-min Rain = 0
KPG1 130914Z 01011KT 25/15 A2993 RMK A01 T02500147  RH  053%=      5-min Rain = 0
KPG1 130915Z 01010KT 25/15 A2993 RMK A01 T02500147  RH  053%=      5-min Rain = 0
KPG1 130916Z 00011KT 25/15 A2993 RMK A01 T02500147  RH  053%=      5-min Rain = 0
KPG1 130917Z 01011KT 25/15 A2993 RMK A01 T02500147  RH  053%=      5-min Rain = 0
KPG1 130918Z 01010KT 25/15 A2993 RMK A01 T02500147  RH  053%=      5-min Rain = 0
KPG1 130919Z 01011KT 25/15 A2993 RMK A01 T02500147  RH  053%=      5-min Rain = 0
KPG1 130920Z 02012KT 25/15 A2993 RMK A01 T02500147  RH  053%=      5-min Rain = 0
KPG1 130921Z 02011KT 25/15 A2993 RMK A01 T02500148  RH  053%=      5-min Rain = 0
KPG1 130922Z 01012KT 25/15 A2993 RMK A01 T02500147  RH  053%=      5-min Rain = 0
KPG1 130923Z 01012KT 25/15 A2993 RMK A01 T02490147  RH  053%=      5-min Rain = 0
KPG1 130924Z 01012KT 25/15 A2993 RMK A01 T02490147  RH  053%=      5-min Rain = 0
KPG1 130925Z 01013KT 25/15 A2993 RMK A01 T02490147  RH  053%=      5-min Rain = 0
KPG1 130926Z 01012KT 25/15 A2993 RMK A01 T02490147  RH  053%=      5-min Rain = 0
KPG1 130927Z 01011KT 25/15 A2993 RMK A01 T02490147  RH  053%=      5-min Rain = 0
KPG1 130928Z 02013KT 25/15 A2993 RMK A01 T02490147  RH  053%=      5-min Rain = 0
KPG1 130929Z 02013KT 25/15 A2993 RMK A01 T02490147  RH  053%=      5-min Rain = 0
KPG1 130930Z 02012KT 25/15 A2993 RMK A01 T02490147  RH  053%=      5-min Rain = 0
KPG1 130931Z 01012KT 25/15 A2993 RMK A01 T02490147  RH  053%=      5-min Rain = 0
KPG1 130932Z 01011KT 25/15 A2993 RMK A01 T02490147  RH  053%=      5-min Rain = 0
KPG1 130933Z 01013KT 25/15 A2993 RMK A01 T02490147  RH  053%=      5-min Rain = 0
KPG1 130934Z 02012KT 25/15 A2993 RMK A01 T02490147  RH  053%=      5-min Rain = 0
KPG1 130935Z 02011KT 25/15 A2993 RMK A01 T02490147  RH  053%=      5-min Rain = 0
KPG1 130936Z 02010KT 25/15 A2993 RMK A01 T02490147  RH  053%=      5-min Rain = 0
KPG1 130937Z 02009KT 25/15 A2993 RMK A01 T02490147  RH  053%=      5-min Rain = 0
KPG1 130938Z 03008KT 25/15 A2993 RMK A01 T02480147  RH  053%=      5-min Rain = 0
KPG1 130939Z 03010KT 25/15 A2993 RMK A01 T02490147  RH  053%=      5-min Rain = 0
KPG1 130940Z 02011KT 25/15 A2993 RMK A01 T02480146  RH  053%=      5-min Rain = 0
KPG1 130941Z 01011KT 25/15 A2993 RMK A01 T02480147  RH  053%=      5-min Rain = 0
KPG1 130942Z 02012KT 25/15 A2993 RMK A01 T02480146  RH  053%=      5-min Rain = 0
KPG1 130943Z 01014KT 25/15 A2993 RMK A01 T02480146  RH  053%=      5-min Rain = 0
KPG1 130944Z 01013KT 25/15 A2993 RMK A01 T02480147  RH  053%=      5-min Rain = 0
KPG1 130945Z 01012KT 25/15 A2993 RMK A01 T02480147  RH  053%=      5-min Rain = 0
KPG1 130946Z 02012KT 25/15 A2993 RMK A01 T02480146  RH  053%=      5-min Rain = 0
KPG1 130947Z 03012KT 25/15 A2993 RMK A01 T02480146  RH  053%=      5-min Rain = 0
KPG1 130948Z 03012KT 25/15 A2993 RMK A01 T02480146  RH  053%=      5-min Rain = 0
KPG1 130949Z 02013KT 25/15 A2993 RMK A01 T02470146  RH  053%=      5-min Rain = 0
KPG1 130950Z 02013KT 25/15 A2993 RMK A01 T02470147  RH  053%=      5-min Rain = 0
KPG1 130951Z 02012KT 25/15 A2993 RMK A01 T02470146  RH  053%=      5-min Rain = 0
KPG1 130952Z 02013KT 25/15 A2993 RMK A01 T02470146  RH  053%=      5-min Rain = 0
KPG1 130953Z 01013KT 25/15 A2993 RMK A01 T02470146  RH  054%=      5-min Rain = 0
KPG1 130954Z 02012KT 25/15 A2993 RMK A01 T02470146  RH  054%=      5-min Rain = 0
KPG1 130955Z 02013KT 25/15 A2993 RMK A01 T02470146  RH  053%=      5-min Rain = 0
KPG1 130956Z 02011KT 25/15 A2993 RMK A01 T02470146  RH  053%=      5-min Rain = 0
KPG1 130957Z 03010KT 25/15 A2993 RMK A01 T02470146  RH  053%=      5-min Rain = 0
KPG1 130958Z 02011KT 25/15 A2993 RMK A01 T02450145  RH  054%=      5-min Rain = 0
KPG1 130959Z 02011KT 25/15 A2993 RMK A01 T02450146  RH  054%=      5-min Rain = 0
KPG1 131000Z 03010KT 25/15 A2993 RMK A01 T02450146  RH  054%=      5-min Rain = 0
KPG1 131001Z 03010KT 24/15 A2993 RMK A01 T02440145  RH  054%=      5-min Rain = 0
KPG1 131002Z 03010KT 24/15 A2993 RMK A01 T02430145  RH  054%=      5-min Rain = 0
KPG1 131003Z 03010KT 24/14 A2993 RMK A01 T02410144  RH  055%=      5-min Rain = 0
KPG1 131004Z 03011KT 24/15 A2993 RMK A01 T02410145  RH  055%=      5-min Rain = 0
KPG1 131005Z 03011KT 24/15 A2993 RMK A01 T02400145  RH  055%=      5-min Rain = 0
KPG1 131006Z 03011KT 24/15 A2993 RMK A01 T02400145  RH  055%=      5-min Rain = 0
KPG1 131007Z 02012KT 24/15 A2993 RMK A01 T02400145  RH  055%=      5-min Rain = 0
KPG1 131008Z 02011KT 24/15 A2993 RMK A01 T02410145  RH  055%=      5-min Rain = 0
KPG1 131009Z 03010KT 24/15 A2993 RMK A01 T02410145  RH  055%=      5-min Rain = 0
KPG1 131010Z 03010KT 24/15 A2993 RMK A01 T02410145  RH  055%=      5-min Rain = 0
KPG1 131011Z 04009KT 24/15 A2993 RMK A01 T02410145  RH  055%=      5-min Rain = 0
KPG1 131012Z 04009KT 24/15 A2993 RMK A01 T02410145  RH  055%=      5-min Rain = 0
KPG1 131013Z 04009KT 24/15 A2993 RMK A01 T02410145  RH  055%=      5-min Rain = 0
KPG1 131014Z 04010KT 24/15 A2993 RMK A01 T02410145  RH  055%=      5-min Rain = 0
KPG1 131015Z 04009KT 24/15 A2994 RMK A01 T02410145  RH  055%=      5-min Rain = 0
KPG1 131016Z 04010KT 24/15 A2994 RMK A01 T02410145  RH  055%=      5-min Rain = 0
KPG1 131017Z 04010KT 24/15 A2994 RMK A01 T02410145  RH  055%=      5-min Rain = 0
KPG1 131018Z 04009KT 24/15 A2994 RMK A01 T02410145  RH  055%=      5-min Rain = 0
KPG1 131019Z 03008KT 24/15 A2994 RMK A01 T02410145  RH  055%=      5-min Rain = 0
KPG1 131020Z 02010KT 24/15 A2994 RMK A01 T02410145  RH  055%=      5-min Rain = 0
KPG1 131021Z 01011KT 24/15 A2994 RMK A01 T02410145  RH  055%=      5-min Rain = 0
KPG1 131022Z 01012KT 24/15 A2994 RMK A01 T02430146  RH  055%=      5-min Rain = 0
KPG1 131023Z 01011KT 25/15 A2994 RMK A01 T02450146  RH  054%=      5-min Rain = 0
KPG1 131024Z 01013KT 25/15 A2994 RMK A01 T02460146  RH  054%=      5-min Rain = 0
KPG1 131025Z 02010KT 25/15 A2994 RMK A01 T02450146  RH  054%=      5-min Rain = 0
KPG1 131026Z 03010KT 25/15 A2994 RMK A01 T02450145  RH  054%=      5-min Rain = 0
KPG1 131027Z 05009KT 25/15 A2994 RMK A01 T02450145  RH  054%=      5-min Rain = 0
KPG1 131028Z 05009KT 24/15 A2994 RMK A01 T02440145  RH  054%=      5-min Rain = 0
KPG1 131029Z 05010KT 24/15 A2994 RMK A01 T02440146  RH  054%=      5-min Rain = 0
KPG1 131030Z 04011KT 24/15 A2994 RMK A01 T02440146  RH  054%=      5-min Rain = 0
KPG1 131031Z 03012KT 24/15 A2994 RMK A01 T02440146  RH  054%=      5-min Rain = 0
KPG1 131032Z 03011KT 24/15 A2994 RMK A01 T02440145  RH  054%=      5-min Rain = 0
KPG1 131033Z 03011KT 24/15 A2994 RMK A01 T02430145  RH  054%=      5-min Rain = 0
KPG1 131034Z 03009KT 24/15 A2994 RMK A01 T02430145  RH  054%=      5-min Rain = 0
KPG1 131035Z 03010KT 24/15 A2994 RMK A01 T02430145  RH  054%=      5-min Rain = 0
KPG1 131036Z 03010KT 24/15 A2994 RMK A01 T02420145  RH  055%=      5-min Rain = 0
KPG1 131037Z 03009KT 24/15 A2994 RMK A01 T02420145  RH  055%=      5-min Rain = 0
KPG1 131038Z 02010KT 24/15 A2994 RMK A01 T02410145  RH  055%=      5-min Rain = 0
KPG1 131039Z 02010KT 24/15 A2994 RMK A01 T02410145  RH  055%=      5-min Rain = 0
KPG1 131040Z 02010KT 24/14 A2994 RMK A01 T02400144  RH  055%=      5-min Rain = 0
KPG1 131041Z 02010KT 24/14 A2994 RMK A01 T02400144  RH  055%=      5-min Rain = 0
KPG1 131042Z 02009KT 24/14 A2994 RMK A01 T02390144  RH  055%=      5-min Rain = 0
KPG1 131043Z 02009KT 24/14 A2994 RMK A01 T02390144  RH  055%=      5-min Rain = 0
KPG1 131044Z 02009KT 24/14 A2994 RMK A01 T02390144  RH  055%=      5-min Rain = 0
KPG1 131045Z 02009KT 24/14 A2994 RMK A01 T02380144  RH  056%=      5-min Rain = 0
KPG1 131046Z 01009KT 24/15 A2994 RMK A01 T02390145  RH  055%=      5-min Rain = 0
KPG1 131047Z 02009KT 24/15 A2995 RMK A01 T02400145  RH  055%=      5-min Rain = 0
KPG1 131048Z 02009KT 24/15 A2995 RMK A01 T02410145  RH  055%=      5-min Rain = 0
KPG1 131049Z 02009KT 24/15 A2995 RMK A01 T02420146  RH  055%=      5-min Rain = 0
KPG1 131050Z 02009KT 24/15 A2995 RMK A01 T02430145  RH  055%=      5-min Rain = 0
KPG1 131051Z 03009KT 24/15 A2995 RMK A01 T02430145  RH  054%=      5-min Rain = 0
KPG1 131052Z 03009KT 24/14 A2995 RMK A01 T02410144  RH  055%=      5-min Rain = 0
KPG1 131053Z 03009KT 24/14 A2995 RMK A01 T02400144  RH  055%=      5-min Rain = 0
KPG1 131054Z 03009KT 24/15 A2995 RMK A01 T02400145  RH  055%=      5-min Rain = 0
KPG1 131055Z 02009KT 24/15 A2995 RMK A01 T02400145  RH  055%=      5-min Rain = 0
KPG1 131056Z 02009KT 24/15 A2995 RMK A01 T02400145  RH  055%=      5-min Rain = 0
KPG1 131057Z 02010KT 24/15 A2995 RMK A01 T02410145  RH  055%=      5-min Rain = 0
KPG1 131058Z 02009KT 24/15 A2995 RMK A01 T02420145  RH  055%=      5-min Rain = 0
KPG1 131059Z 02009KT 24/15 A2995 RMK A01 T02420145  RH  055%=      5-min Rain = 0
KPG1 131100Z 02009KT 24/15 A2995 RMK A01 T02420145  RH  055%=      5-min Rain = 0
KPG1 131101Z 01009KT 24/15 A2996 RMK A01 T02410145  RH  055%=      5-min Rain = 0
KPG1 131102Z 01010KT 24/15 A2996 RMK A01 T02420145  RH  055%=      5-min Rain = 0
KPG1 131103Z 01009KT 24/15 A2996 RMK A01 T02430145  RH  055%=      5-min Rain = 0
KPG1 131104Z 01009KT 24/15 A2996 RMK A01 T02430145  RH  054%=      5-min Rain = 0
KPG1 131105Z 01010KT 24/15 A2996 RMK A01 T02440145  RH  054%=      5-min Rain = 0
KPG1 131106Z 01009KT 24/15 A2996 RMK A01 T02440146  RH  054%=      5-min Rain = 0
KPG1 131107Z 02009KT 25/15 A2996 RMK A01 T02450146  RH  054%=      5-min Rain = 0
KPG1 131108Z 02008KT 25/15 A2996 RMK A01 T02460145  RH  054%=      5-min Rain = 0
KPG1 131109Z 02008KT 25/15 A2996 RMK A01 T02450145  RH  054%=      5-min Rain = 0
KPG1 131110Z 02008KT 25/15 A2996 RMK A01 T02450145  RH  054%=      5-min Rain = 0
KPG1 131111Z 02008KT 24/15 A2996 RMK A01 T02440145  RH  054%=      5-min Rain = 0
KPG1 131112Z 01008KT 25/15 A2996 RMK A01 T02450145  RH  054%=      5-min Rain = 0
KPG1 131113Z 35007KT 25/15 A2996 RMK A01 T02460145  RH  053%=      5-min Rain = 0
KPG1 131114Z 31005KT 25/15 A2996 RMK A01 T02460145  RH  053%=      5-min Rain = 0
KPG1 131115Z 29004KT 25/14 A2996 RMK A01 T02460142  RH  052%=      5-min Rain = 0
KPG1 131116Z 32003KT 25/14 A2996 RMK A01 T02450141  RH  052%=      5-min Rain = 0
KPG1 131117Z 32004KT 24/14 A2996 RMK A01 T02440141  RH  053%=      5-min Rain = 0
KPG1 131118Z 32004KT 24/14 A2996 RMK A01 T02430141  RH  053%=      5-min Rain = 0
KPG1 131119Z 29002KT 24/14 A2996 RMK A01 T02430141  RH  053%=      5-min Rain = 0
KPG1 131120Z 30001KT 24/14 A2996 RMK A01 T02430140  RH  053%=      5-min Rain = 0
KPG1 131121Z 11000KT 24/14 A2996 RMK A01 T02420140  RH  053%=      5-min Rain = 0
KPG1 131122Z 14001KT 24/14 A2996 RMK A01 T02420141  RH  053%=      5-min Rain = 0
KPG1 131123Z 16001KT 24/14 A2996 RMK A01 T02420141  RH  053%=      5-min Rain = 0
KPG1 131124Z 21001KT 24/14 A2996 RMK A01 T02420140  RH  053%=      5-min Rain = 0
KPG1 131125Z 26001KT 24/14 A2997 RMK A01 T02410140  RH  053%=      5-min Rain = 0
KPG1 131126Z 02000KT 24/14 A2996 RMK A01 T02400140  RH  053%=      5-min Rain = 0
KPG1 131127Z 02002KT 24/14 A2996 RMK A01 T02400140  RH  053%=      5-min Rain = 0
KPG1 131128Z 04005KT 24/14 A2996 RMK A01 T02400142  RH  054%=      5-min Rain = 0
KPG1 131129Z 04007KT 24/14 A2996 RMK A01 T02400144  RH  055%=      5-min Rain = 0
KPG1 131130Z 04008KT 24/14 A2996 RMK A01 T02400144  RH  055%=      5-min Rain = 0
KPG1 131131Z 04008KT 24/15 A2996 RMK A01 T02400145  RH  055%=      5-min Rain = 0
KPG1 131132Z 04008KT 24/15 A2996 RMK A01 T02400145  RH  055%=      5-min Rain = 0
KPG1 131133Z 03008KT 24/14 A2996 RMK A01 T02390144  RH  055%=      5-min Rain = 0
KPG1 131134Z 03009KT 24/15 A2996 RMK A01 T02390145  RH  055%=      5-min Rain = 0
KPG1 131135Z 03009KT 24/15 A2996 RMK A01 T02390145  RH  056%=      5-min Rain = 0
KPG1 131136Z 03010KT 24/15 A2996 RMK A01 T02380145  RH  056%=      5-min Rain = 0
KPG1 131137Z 03009KT 24/15 A2996 RMK A01 T02380145  RH  056%=      5-min Rain = 0
KPG1 131138Z 03008KT 24/15 A2996 RMK A01 T02380145  RH  056%=      5-min Rain = 0
KPG1 131139Z 03008KT 24/15 A2996 RMK A01 T02370145  RH  056%=      5-min Rain = 0
KPG1 131140Z 04008KT 24/15 A2996 RMK A01 T02370145  RH  056%=      5-min Rain = 0
KPG1 131141Z 04007KT 24/15 A2996 RMK A01 T02360145  RH  057%=      5-min Rain = 0
KPG1 131142Z 03006KT 24/15 A2996 RMK A01 T02350145  RH  057%=      5-min Rain = 0
KPG1 131143Z 03007KT 23/14 A2996 RMK A01 T02340144  RH  057%=      5-min Rain = 0
KPG1 131144Z 04008KT 23/15 A2996 RMK A01 T02340145  RH  057%=      5-min Rain = 0
KPG1 131145Z 02007KT 23/15 A2996 RMK A01 T02340145  RH  057%=      5-min Rain = 0
KPG1 131146Z 03007KT 23/15 A2996 RMK A01 T02330145  RH  057%=      5-min Rain = 0
KPG1 131147Z 04009KT 23/15 A2996 RMK A01 T02320145  RH  058%=      5-min Rain = 0
KPG1 131148Z 04009KT 23/15 A2996 RMK A01 T02330145  RH  058%=      5-min Rain = 0
KPG1 131149Z 04010KT 23/15 A2996 RMK A01 T02330145  RH  058%=      5-min Rain = 0
KPG1 131150Z 04010KT 23/15 A2996 RMK A01 T02330145  RH  058%=      5-min Rain = 0
KPG1 131151Z 03009KT 23/15 A2996 RMK A01 T02330146  RH  058%=      5-min Rain = 0
KPG1 131152Z 02008KT 23/15 A2996 RMK A01 T02330146  RH  058%=      5-min Rain = 0
KPG1 131153Z 02009KT 23/15 A2997 RMK A01 T02320145  RH  058%=      5-min Rain = 0
KPG1 131154Z 02009KT 23/15 A2997 RMK A01 T02320145  RH  058%=      5-min Rain = 0
KPG1 131155Z 02008KT 23/15 A2997 RMK A01 T02320146  RH  058%=      5-min Rain = 0
KPG1 131156Z 03008KT 23/15 A2997 RMK A01 T02310146  RH  058%=      5-min Rain = 0
KPG1 131157Z 03009KT 23/15 A2997 RMK A01 T02310146  RH  059%=      5-min Rain = 0
KPG1 131158Z 03008KT 23/15 A2997 RMK A01 T02310146  RH  059%=      5-min Rain = 0
KPG1 131159Z 03008KT 23/15 A2997 RMK A01 T02310145  RH  059%=      5-min Rain = 0
KPG1 131200Z 03007KT 23/15 A2997 RMK A01 T02310146  RH  059%=      5-min Rain = 0
KPG1 131201Z 03006KT 23/15 A2997 RMK A01 T02310146  RH  059%=      5-min Rain = 0
KPG1 131202Z 03008KT 23/15 A2997 RMK A01 T02310146  RH  059%=      5-min Rain = 0
KPG1 131203Z 03009KT 23/15 A2997 RMK A01 T02310146  RH  059%=      5-min Rain = 0
KPG1 131204Z 03008KT 23/15 A2997 RMK A01 T02310146  RH  059%=      5-min Rain = 0
KPG1 131205Z 03008KT 23/15 A2997 RMK A01 T02310146  RH  059%=      5-min Rain = 0
KPG1 131206Z 03008KT 23/15 A2997 RMK A01 T02310146  RH  059%=      5-min Rain = 0
KPG1 131207Z 03008KT 23/15 A2997 RMK A01 T02310146  RH  059%=      5-min Rain = 0
KPG1 131208Z 03007KT 23/15 A2997 RMK A01 T02310146  RH  059%=      5-min Rain = 0
KPG1 131209Z 03008KT 23/15 A2997 RMK A01 T02310146  RH  059%=      5-min Rain = 0
KPG1 131210Z 03007KT 23/15 A2998 RMK A01 T02310146  RH  059%=      5-min Rain = 0
KPG1 131211Z 03007KT 23/15 A2998 RMK A01 T02310146  RH  059%=      5-min Rain = 0
KPG1 131212Z 03007KT 23/15 A2998 RMK A01 T02320146  RH  059%=      5-min Rain = 0
KPG1 131213Z 03008KT 23/15 A2997 RMK A01 T02320146  RH  059%=      5-min Rain = 0
KPG1 131214Z 03008KT 23/15 A2997 RMK A01 T02320146  RH  059%=      5-min Rain = 0
KPG1 131215Z 03008KT 23/15 A2997 RMK A01 T02320146  RH  058%=      5-min Rain = 0
KPG1 131216Z 03008KT 23/15 A2998 RMK A01 T02320146  RH  058%=      5-min Rain = 0
KPG1 131217Z 03007KT 23/15 A2998 RMK A01 T02320146  RH  058%=      5-min Rain = 0
KPG1 131218Z 03007KT 23/15 A2998 RMK A01 T02320146  RH  058%=      5-min Rain = 0
KPG1 131219Z 03009KT 23/15 A2998 RMK A01 T02320146  RH  058%=      5-min Rain = 0
KPG1 131220Z 03008KT 23/15 A2998 RMK A01 T02330147  RH  058%=      5-min Rain = 0
KPG1 131221Z 03008KT 23/15 A2998 RMK A01 T02330146  RH  058%=      5-min Rain = 0
KPG1 131222Z 02008KT 23/15 A2998 RMK A01 T02330146  RH  058%=      5-min Rain = 0
KPG1 131223Z 03008KT 23/15 A2998 RMK A01 T02340146  RH  058%=      5-min Rain = 0
KPG1 131224Z 03008KT 23/15 A2998 RMK A01 T02340147  RH  058%=      5-min Rain = 0
KPG1 131225Z 03008KT 23/15 A2998 RMK A01 T02340146  RH  058%=      5-min Rain = 0
KPG1 131226Z 02007KT 23/15 A2998 RMK A01 T02340147  RH  058%=      5-min Rain = 0
KPG1 131227Z 02008KT 24/15 A2998 RMK A01 T02350147  RH  058%=      5-min Rain = 0
KPG1 131228Z 02008KT 24/15 A2998 RMK A01 T02350147  RH  058%=      5-min Rain = 0
KPG1 131229Z 02008KT 24/15 A2998 RMK A01 T02360147  RH  057%=      5-min Rain = 0
KPG1 131230Z 02007KT 24/15 A2998 RMK A01 T02360147  RH  057%=      5-min Rain = 0
KPG1 131231Z 03007KT 24/15 A2998 RMK A01 T02370147  RH  057%=      5-min Rain = 0
KPG1 131232Z 02007KT 24/15 A2998 RMK A01 T02370147  RH  057%=      5-min Rain = 0
KPG1 131233Z 02008KT 24/15 A2998 RMK A01 T02370147  RH  057%=      5-min Rain = 0
KPG1 131234Z 02008KT 24/15 A2998 RMK A01 T02370147  RH  057%=      5-min Rain = 0
KPG1 131235Z 02008KT 24/15 A2998 RMK A01 T02370147  RH  057%=      5-min Rain = 0
KPG1 131236Z 03009KT 24/15 A2998 RMK A01 T02370147  RH  057%=      5-min Rain = 0
KPG1 131237Z 02009KT 24/15 A2998 RMK A01 T02370147  RH  057%=      5-min Rain = 0
KPG1 131238Z 02010KT 24/15 A2998 RMK A01 T02370147  RH  057%=      5-min Rain = 0
KPG1 131239Z 02010KT 24/15 A2998 RMK A01 T02370147  RH  057%=      5-min Rain = 0
KPG1 131240Z 02010KT 24/15 A2998 RMK A01 T02370147  RH  057%=      5-min Rain = 0
KPG1 131241Z 02010KT 24/15 A2998 RMK A01 T02370147  RH  057%=      5-min Rain = 0
KPG1 131242Z 03009KT 24/15 A2998 RMK A01 T02370147  RH  057%=      5-min Rain = 0
KPG1 131243Z 02009KT 24/15 A2999 RMK A01 T02370147  RH  057%=      5-min Rain = 0
KPG1 131244Z 02010KT 24/15 A2999 RMK A01 T02370147  RH  057%=      5-min Rain = 0
KPG1 131245Z 02009KT 24/15 A2999 RMK A01 T02370147  RH  057%=      5-min Rain = 0
KPG1 131246Z 03009KT 24/15 A2999 RMK A01 T02370147  RH  057%=      5-min Rain = 0
KPG1 131247Z 03009KT 24/15 A2999 RMK A01 T02370147  RH  057%=      5-min Rain = 0
KPG1 131248Z 03010KT 24/15 A2999 RMK A01 T02370147  RH  057%=      5-min Rain = 0
KPG1 131249Z 04009KT 24/15 A2999 RMK A01 T02370147  RH  057%=      5-min Rain = 0
KPG1 131250Z 04009KT 24/15 A2999 RMK A01 T02370147  RH  057%=      5-min Rain = 0
KPG1 131251Z 04009KT 24/15 A2999 RMK A01 T02370147  RH  057%=      5-min Rain = 0
KPG1 131252Z 03011KT 24/15 A2999 RMK A01 T02370147  RH  057%=      5-min Rain = 0
KPG1 131253Z 03012KT 24/15 A2999 RMK A01 T02370146  RH  057%=      5-min Rain = 0
KPG1 131254Z 04012KT 24/15 A2999 RMK A01 T02370147  RH  057%=      5-min Rain = 0
KPG1 131255Z 04011KT 24/15 A2999 RMK A01 T02370147  RH  057%=      5-min Rain = 0
KPG1 131256Z 04009KT 24/15 A2999 RMK A01 T02370147  RH  057%=      5-min Rain = 0
KPG1 131257Z 04012KT 24/15 A2999 RMK A01 T02360147  RH  057%=      5-min Rain = 0
KPG1 131258Z 05010KT 24/15 A2999 RMK A01 T02360146  RH  057%=      5-min Rain = 0
KPG1 131259Z 05010KT 24/15 A2999 RMK A01 T02350146  RH  057%=      5-min Rain = 0
KPG1 131300Z 05010KT 24/15 A2999 RMK A01 T02350146  RH  057%=      5-min Rain = 0
KPG1 131301Z 05011KT 24/15 A2999 RMK A01 T02350147  RH  058%=      5-min Rain = 0
KPG1 131302Z 05012KT 23/15 A2999 RMK A01 T02340146  RH  058%=      5-min Rain = 0
KPG1 131303Z 05011KT 23/15 A2999 RMK A01 T02340146  RH  058%=      5-min Rain = 0
KPG1 131304Z 05010KT 23/15 A30 RMK A01 T02330146  RH  058%=      5-min Rain = 0
KPG1 131305Z 04010KT 23/15 A30 RMK A01 T02330146  RH  058%=      5-min Rain = 0
KPG1 131306Z 04012KT 23/15 A30 RMK A01 T02340146  RH  058%=      5-min Rain = 0
KPG1 131307Z 04012KT 23/15 A30 RMK A01 T02340146  RH  058%=      5-min Rain = 0
KPG1 131308Z 05011KT 23/15 A30 RMK A01 T02330146  RH  058%=      5-min Rain = 0
KPG1 131309Z 04011KT 23/15 A30 RMK A01 T02330146  RH  058%=      5-min Rain = 0
KPG1 131310Z 05011KT 23/15 A30 RMK A01 T02330146  RH  058%=      5-min Rain = 0
KPG1 131311Z 04011KT 23/15 A30 RMK A01 T02330146  RH  058%=      5-min Rain = 0
KPG1 131312Z 05011KT 23/15 A30 RMK A01 T02330146  RH  058%=      5-min Rain = 0
KPG1 131313Z 04012KT 23/15 A30 RMK A01 T02330145  RH  058%=      5-min Rain = 0
KPG1 131314Z 04011KT 23/15 A30 RMK A01 T02330146  RH  058%=      5-min Rain = 0
KPG1 131315Z 05012KT 23/15 A30 RMK A01 T02330146  RH  058%=      5-min Rain = 0
KPG1 131316Z 05013KT 23/15 A30 RMK A01 T02330148  RH  059%=      5-min Rain = 0
KPG1 131317Z 05012KT 23/15 A30 RMK A01 T02330148  RH  059%=      5-min Rain = 0
KPG1 131318Z 05011KT 23/15 A30 RMK A01 T02330149  RH  059%=      5-min Rain = 0
KPG1 131319Z 05011KT 23/15 A30 RMK A01 T02330149  RH  059%=      5-min Rain = 0
KPG1 131320Z 04012KT 23/15 A30 RMK A01 T02330150  RH  060%=      5-min Rain = 0
KPG1 131321Z 04012KT 23/15 A30 RMK A01 T02330151  RH  060%=      5-min Rain = 0
KPG1 131322Z 05013KT 23/15 A30 RMK A01 T02330152  RH  060%=      5-min Rain = 0
KPG1 131323Z 05012KT 23/15 A30 RMK A01 T02320152  RH  061%=      5-min Rain = 0
KPG1 131324Z 05012KT 23/15 A30 RMK A01 T02320152  RH  061%=      5-min Rain = 0
KPG1 131325Z 04013KT 23/15 A30 RMK A01 T02320152  RH  061%=      5-min Rain = 0
KPG1 131326Z 04013KT 23/15 A30 RMK A01 T02310152  RH  061%=      5-min Rain = 0
KPG1 131327Z 04013KT 23/15 A30 RMK A01 T02310153  RH  061%=      5-min Rain = 0
KPG1 131328Z 04013KT 23/15 A30 RMK A01 T02310153  RH  062%=      5-min Rain = 0
KPG1 131329Z 04012KT 23/15 A30 RMK A01 T02310154  RH  062%=      5-min Rain = 0
KPG1 131330Z 05010KT 23/16 A30 RMK A01 T02310155  RH  062%=      5-min Rain = 0
KPG1 131331Z 04010KT 23/15 A3001 RMK A01 T02310154  RH  062%=      5-min Rain = 0
KPG1 131332Z 04010KT 23/16 A30 RMK A01 T02310155  RH  062%=      5-min Rain = 0
KPG1 131333Z 04011KT 23/16 A30 RMK A01 T02320156  RH  062%=      5-min Rain = 0
KPG1 131334Z 03011KT 23/16 A3001 RMK A01 T02320157  RH  062%=      5-min Rain = 0
KPG1 131335Z 03013KT 23/16 A3001 RMK A01 T02320159  RH  063%=      5-min Rain = 0
KPG1 131336Z 03013KT 23/16 A3001 RMK A01 T02320162  RH  064%=      5-min Rain = 0
KPG1 131337Z 03014KT 23/16 A3001 RMK A01 T02320161  RH  064%=      5-min Rain = 0
KPG1 131338Z 03013KT 23/16 A3001 RMK A01 T02310161  RH  065%=      5-min Rain = 0
KPG1 131339Z 03012KT 23/16 A3001 RMK A01 T02310161  RH  065%=      5-min Rain = 0
KPG1 131340Z 03014KT 23/16 A3001 RMK A01 T02310160  RH  065%=      5-min Rain = 0
KPG1 131341Z 04013KT 23/16 A3001 RMK A01 T02310162  RH  065%=      5-min Rain = 0
KPG1 131342Z 03012KT 23/16 A3001 RMK A01 T02320160  RH  064%=      5-min Rain = 0
KPG1 131343Z 03013KT 23/16 A3001 RMK A01 T02330160  RH  064%=      5-min Rain = 0
KPG1 131344Z 03011KT 23/16 A3001 RMK A01 T02330160  RH  063%=      5-min Rain = 0
KPG1 131345Z 03010KT 23/16 A3001 RMK A01 T02340160  RH  063%=      5-min Rain = 0
KPG1 131346Z 02012KT 24/16 A3001 RMK A01 T02370159  RH  062%=      5-min Rain = 0
KPG1 131347Z 02010KT 24/16 A3001 RMK A01 T02370158  RH  061%=      5-min Rain = 0
KPG1 131348Z 03009KT 24/16 A3001 RMK A01 T02370159  RH  061%=      5-min Rain = 0
KPG1 131349Z 03010KT 24/16 A3001 RMK A01 T02380159  RH  061%=      5-min Rain = 0
KPG1 131350Z 03012KT 24/16 A3001 RMK A01 T02380158  RH  061%=      5-min Rain = 0
KPG1 131351Z 02010KT 24/16 A3001 RMK A01 T02370158  RH  061%=      5-min Rain = 0
KPG1 131352Z 03010KT 24/16 A3001 RMK A01 T02370159  RH  062%=      5-min Rain = 0
KPG1 131353Z 03012KT 24/16 A3001 RMK A01 T02370162  RH  063%=      5-min Rain = 0
KPG1 131354Z 03012KT 24/16 A3001 RMK A01 T02370164  RH  064%=      5-min Rain = 0
KPG1 131355Z 03010KT 24/16 A3001 RMK A01 T02360163  RH  064%=      5-min Rain = 0
KPG1 131356Z 02012KT 24/16 A3001 RMK A01 T02370162  RH  063%=      5-min Rain = 0
KPG1 131357Z 03011KT 24/16 A3001 RMK A01 T02380163  RH  063%=      5-min Rain = 0
KPG1 131358Z 03010KT 24/16 A3001 RMK A01 T02390163  RH  062%=      5-min Rain = 0
KPG1 131359Z 04013KT 24/16 A3001 RMK A01 T02400164  RH  062%=      5-min Rain = 0
KPG1 131400Z 03012KT 24/17 A3001 RMK A01 T02410166  RH  063%=      5-min Rain = 0
KPG1 131401Z 04012KT 24/17 A3001 RMK A01 T02410165  RH  062%=      5-min Rain = 0
KPG1 131402Z 03011KT 24/17 A3001 RMK A01 T02410165  RH  062%=      5-min Rain = 0
KPG1 131403Z 04011KT 24/17 A3001 RMK A01 T02410165  RH  063%=      5-min Rain = 0
KPG1 131404Z 04011KT 24/17 A3001 RMK A01 T02400167  RH  063%=      5-min Rain = 0
KPG1 131405Z 04012KT 24/17 A3001 RMK A01 T02390168  RH  064%=      5-min Rain = 0
KPG1 131406Z 04011KT 24/17 A3001 RMK A01 T02380169  RH  065%=      5-min Rain = 0
KPG1 131407Z 04009KT 24/17 A3002 RMK A01 T02380169  RH  065%=      5-min Rain = 0
KPG1 131408Z 04010KT 24/17 A3002 RMK A01 T02380169  RH  065%=      5-min Rain = 0
KPG1 131409Z 04009KT 24/17 A3002 RMK A01 T02380169  RH  065%=      5-min Rain = 0
KPG1 131410Z 04010KT 24/17 A3002 RMK A01 T02380167  RH  065%=      5-min Rain = 0
KPG1 131411Z 04009KT 24/17 A3002 RMK A01 T02380167  RH  064%=      5-min Rain = 0
KPG1 131412Z 03010KT 24/17 A3002 RMK A01 T02390166  RH  063%=      5-min Rain = 0
KPG1 131413Z 04010KT 24/17 A3002 RMK A01 T02400165  RH  063%=      5-min Rain = 0
KPG1 131414Z 03009KT 24/17 A3002 RMK A01 T02400166  RH  063%=      5-min Rain = 0
KPG1 131415Z 04009KT 24/16 A3002 RMK A01 T02400164  RH  063%=      5-min Rain = 0
KPG1 131416Z 04009KT 24/16 A3002 RMK A01 T02400163  RH  062%=      5-min Rain = 0
KPG1 131417Z 04010KT 24/17 A3002 RMK A01 T02410166  RH  063%=      5-min Rain = 0
KPG1 131418Z 04010KT 24/17 A3002 RMK A01 T02420167  RH  063%=      5-min Rain = 0
KPG1 131419Z 03010KT 24/17 A3002 RMK A01 T02420165  RH  062%=      5-min Rain = 0
KPG1 131420Z 04011KT 24/17 A3002 RMK A01 T02420166  RH  063%=      5-min Rain = 0
KPG1 131421Z 05010KT 24/17 A3002 RMK A01 T02420167  RH  063%=      5-min Rain = 0
KPG1 131422Z 04010KT 24/17 A3002 RMK A01 T02430167  RH  063%=      5-min Rain = 0
KPG1 131423Z 04010KT 24/17 A3002 RMK A01 T02430167  RH  063%=      5-min Rain = 0
KPG1 131424Z 04009KT 24/17 A3002 RMK A01 T02440168  RH  063%=      5-min Rain = 0
KPG1 131425Z 04011KT 25/17 A3002 RMK A01 T02450167  RH  062%=      5-min Rain = 0
KPG1 131426Z 04010KT 24/17 A3002 RMK A01 T02440167  RH  062%=      5-min Rain = 0
KPG1 131427Z 04011KT 24/17 A3002 RMK A01 T02430166  RH  062%=      5-min Rain = 0
KPG1 131428Z 04009KT 24/17 A3002 RMK A01 T02420167  RH  063%=      5-min Rain = 0
KPG1 131429Z 05008KT 24/17 A3002 RMK A01 T02420168  RH  063%=      5-min Rain = 0
KPG1 131430Z 05009KT 24/17 A3002 RMK A01 T02440169  RH  063%=      5-min Rain = 0
KPG1 131431Z 04009KT 24/17 A3002 RMK A01 T02440169  RH  063%=      5-min Rain = 0
KPG1 131432Z 04010KT 24/17 A3002 RMK A01 T02440168  RH  062%=      5-min Rain = 0
KPG1 131433Z 04010KT 25/17 A3002 RMK A01 T02450168  RH  062%=      5-min Rain = 0
KPG1 131434Z 04011KT 25/17 A3002 RMK A01 T02450168  RH  062%=      5-min Rain = 0
KPG1 131435Z 05009KT 25/17 A3002 RMK A01 T02450168  RH  062%=      5-min Rain = 0
KPG1 131436Z 05011KT 24/17 A3002 RMK A01 T02440167  RH  062%=      5-min Rain = 0
KPG1 131437Z 05009KT 24/17 A3002 RMK A01 T02440167  RH  062%=      5-min Rain = 0
KPG1 131438Z 06009KT 25/17 A3002 RMK A01 T02450167  RH  062%=      5-min Rain = 0
KPG1 131439Z 04010KT 25/17 A3002 RMK A01 T02460168  RH  062%=      5-min Rain = 0
KPG1 131440Z 05011KT 25/17 A3002 RMK A01 T02480168  RH  061%=      5-min Rain = 0
KPG1 131441Z 05009KT 25/17 A3002 RMK A01 T02480167  RH  061%=      5-min Rain = 0
KPG1 131442Z 05010KT 25/17 A3002 RMK A01 T02470166  RH  061%=      5-min Rain = 0
KPG1 131443Z 04011KT 25/17 A3002 RMK A01 T02470166  RH  061%=      5-min Rain = 0
KPG1 131444Z 04010KT 25/17 A3002 RMK A01 T02460166  RH  061%=      5-min Rain = 0
KPG1 131445Z 02006KT 25/17 A3002 RMK A01 T02470166  RH  061%=      5-min Rain = 0
KPG1 131446Z 05009KT 25/17 A3002 RMK A01 T02510168  RH  060%=      5-min Rain = 0
KPG1 131447Z 05010KT 25/17 A3002 RMK A01 T02510166  RH  059%=      5-min Rain = 0
KPG1 131448Z 05010KT 25/17 A3002 RMK A01 T02520165  RH  058%=      5-min Rain = 0
KPG1 131449Z 05010KT 26/17 A3002 RMK A01 T02550165  RH  057%=      5-min Rain = 0
KPG1 131450Z 04010KT 26/17 A3002 RMK A01 T02550165  RH  057%=      5-min Rain = 0
KPG1 131451Z 03010KT 26/17 A3002 RMK A01 T02560166  RH  057%=      5-min Rain = 0
KPG1 131452Z 03008KT 26/17 A3002 RMK A01 T02560166  RH  058%=      5-min Rain = 0
KPG1 131453Z 04009KT 26/17 A3002 RMK A01 T02570167  RH  057%=      5-min Rain = 0
KPG1 131454Z 03009KT 26/17 A3002 RMK A01 T02570167  RH  057%=      5-min Rain = 0
KPG1 131455Z 03009KT 26/17 A3002 RMK A01 T02560167  RH  058%=      5-min Rain = 0
KPG1 131456Z 04011KT 26/17 A3002 RMK A01 T02560167  RH  058%=      5-min Rain = 0
KPG1 131457Z 04010KT 26/17 A3002 RMK A01 T02550165  RH  057%=      5-min Rain = 0
KPG1 131458Z 05011KT 26/17 A3002 RMK A01 T02550165  RH  058%=      5-min Rain = 0
KPG1 131459Z 06010KT 25/17 A3002 RMK A01 T02530166  RH  058%=      5-min Rain = 0
KPG1 131500Z 03009KT 25/17 A3003 RMK A01 T02530165  RH  058%=      5-min Rain = 0
KPG1 131501Z 05011KT 25/17 A3003 RMK A01 T02530166  RH  058%=      5-min Rain = 0
KPG1 131502Z 04009KT 25/17 A3003 RMK A01 T02520167  RH  059%=      5-min Rain = 0
KPG1 131503Z 04008KT 25/17 A3003 RMK A01 T02510168  RH  060%=      5-min Rain = 0
KPG1 131504Z 03009KT 25/17 A3003 RMK A01 T02510167  RH  059%=      5-min Rain = 0
KPG1 131505Z 02009KT 25/17 A3003 RMK A01 T02520167  RH  060%=      5-min Rain = 0
KPG1 131506Z 02009KT 25/17 A3003 RMK A01 T02510167  RH  059%=      5-min Rain = 0
KPG1 131507Z 03008KT 25/17 A3003 RMK A01 T02510167  RH  059%=      5-min Rain = 0
KPG1 131508Z 03009KT 25/17 A3003 RMK A01 T02520167  RH  059%=      5-min Rain = 0
KPG1 131509Z 03009KT 25/17 A3003 RMK A01 T02530166  RH  059%=      5-min Rain = 0
KPG1 131510Z 03009KT 25/17 A3003 RMK A01 T02530166  RH  059%=      5-min Rain = 0
KPG1 131511Z 03007KT 25/17 A3003 RMK A01 T02530166  RH  059%=      5-min Rain = 0
KPG1 131512Z 01009KT 26/17 A3003 RMK A01 T02550168  RH  059%=      5-min Rain = 0
KPG1 131513Z 03011KT 26/17 A3003 RMK A01 T02560168  RH  058%=      5-min Rain = 0
KPG1 131514Z 04007KT 26/17 A3003 RMK A01 T02550168  RH  059%=      5-min Rain = 0
KPG1 131515Z 03007KT 26/17 A3003 RMK A01 T02550167  RH  059%=      5-min Rain = 0
KPG1 131516Z 05009KT 26/17 A3003 RMK A01 T02550168  RH  058%=      5-min Rain = 0
KPG1 131517Z 04008KT 26/17 A3003 RMK A01 T02560169  RH  058%=      5-min Rain = 0
KPG1 131518Z 05008KT 26/17 A3003 RMK A01 T02570169  RH  058%=      5-min Rain = 0
KPG1 131519Z 05006KT 26/17 A3003 RMK A01 T02590170  RH  058%=      5-min Rain = 0
KPG1 131520Z 06007KT 26/17 A3003 RMK A01 T02600169  RH  057%=      5-min Rain = 0
KPG1 131521Z 04006KT 26/17 A3003 RMK A01 T02600169  RH  057%=      5-min Rain = 0
KPG1 131522Z 06006KT 26/17 A3003 RMK A01 T02630170  RH  057%=      5-min Rain = 0
KPG1 131523Z 04008KT 27/17 A3003 RMK A01 T02660170  RH  055%=      5-min Rain = 0
KPG1 131524Z 03005KT 27/17 A3003 RMK A01 T02660169  RH  055%=      5-min Rain = 0
KPG1 131525Z 06007KT 27/17 A3003 RMK A01 T02670168  RH  055%=      5-min Rain = 0
KPG1 131526Z 05006KT 27/17 A3003 RMK A01 T02680169  RH  054%=      5-min Rain = 0
KPG1 131527Z 03007KT 27/17 A3003 RMK A01 T02700168  RH  054%=      5-min Rain = 0
KPG1 131528Z 01006KT 27/17 A3003 RMK A01 T02720169  RH  053%=      5-min Rain = 0
KPG1 131529Z 02007KT 27/17 A3003 RMK A01 T02720168  RH  053%=      5-min Rain = 0
KPG1 131530Z 04007KT 27/17 A3003 RMK A01 T02700170  RH  054%=      5-min Rain = 0
KPG1 131531Z 03009KT 27/17 A3003 RMK A01 T02710171  RH  054%=      5-min Rain = 0
KPG1 131532Z 03008KT 27/17 A3003 RMK A01 T02720172  RH  054%=      5-min Rain = 0
KPG1 131533Z 02009KT 27/17 A3003 RMK A01 T02710171  RH  054%=      5-min Rain = 0
KPG1 131534Z 02010KT 27/17 A3003 RMK A01 T02700171  RH  055%=      5-min Rain = 0
KPG1 131535Z 04008KT 27/17 A3003 RMK A01 T02700171  RH  055%=      5-min Rain = 0
KPG1 131536Z 02007KT 27/17 A3003 RMK A01 T02680168  RH  054%=      5-min Rain = 0
KPG1 131537Z 02005KT 27/17 A3003 RMK A01 T02690169  RH  054%=      5-min Rain = 0
KPG1 131538Z 04007KT 27/17 A3003 RMK A01 T02720171  RH  054%=      5-min Rain = 0
KPG1 131539Z 04008KT 27/17 A3003 RMK A01 T02730172  RH  054%=      5-min Rain = 0
KPG1 131540Z 04009KT 27/17 A3003 RMK A01 T02720171  RH  054%=      5-min Rain = 0
KPG1 131541Z 04007KT 27/17 A3003 RMK A01 T02690169  RH  054%=      5-min Rain = 0
KPG1 131542Z 04010KT 27/17 A3003 RMK A01 T02660170  RH  056%=      5-min Rain = 0
KPG1 131543Z 05008KT 26/17 A3003 RMK A01 T02640171  RH  057%=      5-min Rain = 0
KPG1 131544Z 05007KT 26/17 A3003 RMK A01 T02630171  RH  057%=      5-min Rain = 0
KPG1 131545Z 06008KT 26/17 A3003 RMK A01 T02630171  RH  057%=      5-min Rain = 0
KPG1 131546Z 07008KT 26/17 A3003 RMK A01 T02630173  RH  058%=      5-min Rain = 0
KPG1 131547Z 07008KT 27/17 A3003 RMK A01 T02660174  RH  057%=      5-min Rain = 0
KPG1 131548Z 06006KT 27/17 A3003 RMK A01 T02670174  RH  057%=      5-min Rain = 0
KPG1 131549Z 05007KT 27/17 A3003 RMK A01 T02660174  RH  057%=      5-min Rain = 0
KPG1 131550Z 04007KT 27/17 A3003 RMK A01 T02650173  RH  057%=      5-min Rain = 0
KPG1 131551Z 04008KT 27/17 A3003 RMK A01 T02650172  RH  056%=      5-min Rain = 0
KPG1 131552Z 04007KT 27/17 A3003 RMK A01 T02650172  RH  056%=      5-min Rain = 0
KPG1 131553Z 06005KT 27/17 A3003 RMK A01 T02670173  RH  056%=      5-min Rain = 0
KPG1 131554Z 05006KT 27/17 A3002 RMK A01 T02690173  RH  056%=      5-min Rain = 0
KPG1 131555Z 05009KT 27/17 A3002 RMK A01 T02710173  RH  055%=      5-min Rain = 0
KPG1 131556Z 04007KT 27/17 A3002 RMK A01 T02720172  RH  055%=      5-min Rain = 0
KPG1 131557Z 06006KT 27/17 A3002 RMK A01 T02710172  RH  055%=      5-min Rain = 0
KPG1 131558Z 07008KT 27/18 A3002 RMK A01 T02730175  RH  055%=      5-min Rain = 0
KPG1 131559Z 07007KT 27/18 A3002 RMK A01 T02720176  RH  056%=      5-min Rain = 0
KPG1 131600Z 03008KT 27/18 A3002 RMK A01 T02710176  RH  056%=      5-min Rain = 0
KPG1 131601Z 04009KT 27/18 A3002 RMK A01 T02720177  RH  056%=      5-min Rain = 0
KPG1 131602Z 04008KT 27/18 A3002 RMK A01 T02730177  RH  056%=      5-min Rain = 0
KPG1 131603Z 04008KT 27/18 A3002 RMK A01 T02710176  RH  056%=      5-min Rain = 0
KPG1 131604Z 03007KT 27/18 A3002 RMK A01 T02700176  RH  056%=      5-min Rain = 0
KPG1 131605Z 04007KT 27/18 A3002 RMK A01 T02710177  RH  056%=      5-min Rain = 0
KPG1 131606Z 06008KT 27/18 A3002 RMK A01 T02730177  RH  056%=      5-min Rain = 0
KPG1 131607Z 06010KT 27/18 A3002 RMK A01 T02740176  RH  055%=      5-min Rain = 0
KPG1 131608Z 06008KT 27/18 A3002 RMK A01 T02710175  RH  056%=      5-min Rain = 0
KPG1 131609Z 06008KT 27/18 A3002 RMK A01 T02700175  RH  056%=      5-min Rain = 0
KPG1 131610Z 07010KT 27/18 A3002 RMK A01 T02710175  RH  056%=      5-min Rain = 0
KPG1 131611Z 06007KT 27/18 A3002 RMK A01 T02720176  RH  056%=      5-min Rain = 0
KPG1 131612Z 07009KT 27/18 A3002 RMK A01 T02740176  RH  055%=      5-min Rain = 0
KPG1 131613Z 09006KT 27/18 A3002 RMK A01 T02720175  RH  055%=      5-min Rain = 0
KPG1 131614Z 07007KT 27/18 A3002 RMK A01 T02710175  RH  056%=      5-min Rain = 0
KPG1 131615Z 04009KT 27/18 A3002 RMK A01 T02710175  RH  056%=      5-min Rain = 0
KPG1 131616Z 02009KT 27/17 A3002 RMK A01 T02730174  RH  055%=      5-min Rain = 0
KPG1 131617Z 03009KT 28/17 A3002 RMK A01 T02750174  RH  054%=      5-min Rain = 0
KPG1 131618Z 03011KT 28/17 A3002 RMK A01 T02750174  RH  054%=      5-min Rain = 0
KPG1 131619Z 03009KT 27/17 A3002 RMK A01 T02720173  RH  055%=      5-min Rain = 0
KPG1 131620Z 02007KT 27/17 A3002 RMK A01 T02700173  RH  055%=      5-min Rain = 0
KPG1 131621Z 04006KT 27/17 A3002 RMK A01 T02690173  RH  056%=      5-min Rain = 0
KPG1 131622Z 05007KT 27/17 A3002 RMK A01 T02690173  RH  056%=      5-min Rain = 0
KPG1 131623Z 06005KT 27/17 A3002 RMK A01 T02720173  RH  055%=      5-min Rain = 0
KPG1 131624Z 08005KT 27/17 A3003 RMK A01 T02730174  RH  055%=      5-min Rain = 0
KPG1 131625Z 07008KT 27/17 A3003 RMK A01 T02730174  RH  055%=      5-min Rain = 0
KPG1 131626Z 05006KT 28/18 A3003 RMK A01 T02750175  RH  055%=      5-min Rain = 0
KPG1 131627Z 05004KT 28/18 A3003 RMK A01 T02780176  RH  054%=      5-min Rain = 0
KPG1 131628Z 04008KT 28/18 A3003 RMK A01 T02800175  RH  053%=      5-min Rain = 0
KPG1 131629Z 04008KT 28/17 A3003 RMK A01 T02800174  RH  053%=      5-min Rain = 0
KPG1 131630Z 03008KT 28/17 A3003 RMK A01 T02760173  RH  053%=      5-min Rain = 0
KPG1 131631Z 05006KT 27/17 A3002 RMK A01 T02730173  RH  054%=      5-min Rain = 0
KPG1 131632Z 07007KT 27/17 A3002 RMK A01 T02740174  RH  054%=      5-min Rain = 0
KPG1 131633Z 06007KT 28/17 A3002 RMK A01 T02760172  RH  053%=      5-min Rain = 0
KPG1 131634Z 08006KT 28/17 A3003 RMK A01 T02760173  RH  054%=      5-min Rain = 0
KPG1 131635Z 06006KT 28/17 A3003 RMK A01 T02760174  RH  054%=      5-min Rain = 0
KPG1 131636Z 06008KT 28/18 A3003 RMK A01 T02780175  RH  053%=      5-min Rain = 0
KPG1 131637Z 06009KT 28/17 A3003 RMK A01 T02770174  RH  053%=      5-min Rain = 0
KPG1 131638Z 07007KT 27/18 A3003 RMK A01 T02740175  RH  055%=      5-min Rain = 0
KPG1 131639Z 08007KT 27/18 A3003 RMK A01 T02730175  RH  055%=      5-min Rain = 0
KPG1 131640Z 10006KT 27/18 A3003 RMK A01 T02720175  RH  055%=      5-min Rain = 0
KPG1 131641Z 07007KT 27/17 A3003 RMK A01 T02720174  RH  055%=      5-min Rain = 0
KPG1 131642Z 07008KT 27/17 A3003 RMK A01 T02710172  RH  055%=      5-min Rain = 0
KPG1 131643Z 06007KT 27/17 A3003 RMK A01 T02720173  RH  055%=      5-min Rain = 0
KPG1 131644Z 06006KT 27/17 A3003 RMK A01 T02720174  RH  055%=      5-min Rain = 0
KPG1 131645Z 02007KT 27/17 A3003 RMK A01 T02730172  RH  054%=      5-min Rain = 0
KPG1 131646Z 02009KT 27/17 A3003 RMK A01 T02740171  RH  053%=      5-min Rain = 0
KPG1 131647Z 01006KT 27/17 A3003 RMK A01 T02730171  RH  054%=      5-min Rain = 0
KPG1 131648Z 03006KT 27/17 A3003 RMK A01 T02730171  RH  054%=      5-min Rain = 0
KPG1 131649Z 03007KT 27/17 A3003 RMK A01 T02730171  RH  054%=      5-min Rain = 0
KPG1 131650Z 04004KT 28/17 A3003 RMK A01 T02760173  RH  053%=      5-min Rain = 0
KPG1 131651Z 07007KT 28/17 A3003 RMK A01 T02800173  RH  052%=      5-min Rain = 0
KPG1 131652Z 06007KT 28/17 A3003 RMK A01 T02790172  RH  052%=      5-min Rain = 0
KPG1 131653Z 04007KT 28/17 A3003 RMK A01 T02780172  RH  052%=      5-min Rain = 0
KPG1 131654Z 05005KT 28/17 A3002 RMK A01 T02770170  RH  052%=      5-min Rain = 0
KPG1 131655Z 06005KT 28/17 A3002 RMK A01 T02760170  RH  052%=      5-min Rain = 0
KPG1 131656Z 05006KT 28/17 A3002 RMK A01 T02780171  RH  052%=      5-min Rain = 0
KPG1 131657Z 04008KT 28/17 A3002 RMK A01 T02820174  RH  052%=      5-min Rain = 0
KPG1 131658Z 04005KT 29/17 A3002 RMK A01 T02850174  RH  051%=      5-min Rain = 0
KPG1 131659Z 06006KT 29/17 A3002 RMK A01 T02850174  RH  051%=      5-min Rain = 0
KPG1 131700Z 08007KT 29/17 A3002 RMK A01 T02870174  RH  050%=      5-min Rain = 0
KPG1 131701Z 09007KT 29/17 A3002 RMK A01 T02880173  RH  050%=      5-min Rain = 0
KPG1 131702Z 06006KT 29/17 A3002 RMK A01 T02900173  RH  049%=      5-min Rain = 0
KPG1 131703Z 08008KT 29/17 A3003 RMK A01 T02920173  RH  049%=      5-min Rain = 0
KPG1 131704Z 08009KT 29/17 A3003 RMK A01 T02920172  RH  048%=      5-min Rain = 0
KPG1 131705Z 05007KT 29/17 A3003 RMK A01 T02880171  RH  049%=      5-min Rain = 0
KPG1 131706Z 02009KT 29/17 A3003 RMK A01 T02880171  RH  049%=      5-min Rain = 0
KPG1 131707Z 05008KT 29/17 A3003 RMK A01 T02890171  RH  049%=      5-min Rain = 0
KPG1 131708Z 05005KT 29/17 A3003 RMK A01 T02940171  RH  048%=      5-min Rain = 0
KPG1 131709Z 07006KT 29/17 A3003 RMK A01 T02930171  RH  048%=      5-min Rain = 0
KPG1 131710Z 09005KT 29/17 A3003 RMK A01 T02910171  RH  048%=      5-min Rain = 0
KPG1 131711Z 07007KT 29/17 A3002 RMK A01 T02870171  RH  049%=      5-min Rain = 0
KPG1 131712Z 06004KT 28/17 A3002 RMK A01 T02840169  RH  050%=      5-min Rain = 0
KPG1 131713Z 06006KT 28/17 A3002 RMK A01 T02830170  RH  050%=      5-min Rain = 0
KPG1 131714Z 05006KT 28/17 A3002 RMK A01 T02840171  RH  050%=      5-min Rain = 0
KPG1 131715Z 10007KT 29/17 A3002 RMK A01 T02860171  RH  050%=      5-min Rain = 0
KPG1 131716Z 07007KT 29/17 A3002 RMK A01 T02860171  RH  050%=      5-min Rain = 0
KPG1 131717Z 08005KT 28/17 A3002 RMK A01 T02840169  RH  050%=      5-min Rain = 0
KPG1 131718Z 05008KT 29/17 A3002 RMK A01 T02850170  RH  050%=      5-min Rain = 0
KPG1 131719Z 03010KT 29/17 A3002 RMK A01 T02870168  RH  048%=      5-min Rain = 0
KPG1 131720Z 03011KT 29/17 A3002 RMK A01 T02870167  RH  048%=      5-min Rain = 0
KPG1 131721Z 04009KT 29/17 A3002 RMK A01 T02860166  RH  048%=      5-min Rain = 0
KPG1 131722Z 03007KT 29/17 A3002 RMK A01 T02860165  RH  048%=      5-min Rain = 0
KPG1 131723Z 02006KT 28/17 A3002 RMK A01 T02840165  RH  048%=      5-min Rain = 0
KPG1 131724Z 02006KT 28/17 A3002 RMK A01 T02840167  RH  049%=      5-min Rain = 0
KPG1 131725Z 03005KT 28/17 A3002 RMK A01 T02830167  RH  049%=      5-min Rain = 0
KPG1 131726Z 07006KT 28/17 A3002 RMK A01 T02830168  RH  050%=      5-min Rain = 0
KPG1 131727Z 06008KT 29/17 A3002 RMK A01 T02850169  RH  050%=      5-min Rain = 0
KPG1 131728Z 06009KT 29/17 A3002 RMK A01 T02860169  RH  049%=      5-min Rain = 0
KPG1 131729Z 05008KT 29/17 A3002 RMK A01 T02850169  RH  049%=      5-min Rain = 0
KPG1 131730Z 08007KT 29/17 A3002 RMK A01 T02850169  RH  049%=      5-min Rain = 0
KPG1 131731Z 10004KT 29/17 A3002 RMK A01 T02870169  RH  049%=      5-min Rain = 0
KPG1 131732Z 06008KT 29/17 A3002 RMK A01 T02890169  RH  048%=      5-min Rain = 0
KPG1 131733Z 04009KT 29/17 A3001 RMK A01 T02900167  RH  047%=      5-min Rain = 0
KPG1 131734Z 04008KT 29/17 A3001 RMK A01 T02900165  RH  047%=      5-min Rain = 0
KPG1 131735Z 04008KT 29/17 A3001 RMK A01 T02910166  RH  047%=      5-min Rain = 0
KPG1 131736Z 03009KT 29/17 A3001 RMK A01 T02890166  RH  047%=      5-min Rain = 0
KPG1 131737Z 03010KT 29/17 A3001 RMK A01 T02890166  RH  048%=      5-min Rain = 0
KPG1 131738Z 04011KT 29/17 A3001 RMK A01 T02890165  RH  047%=      5-min Rain = 0
KPG1 131739Z 04011KT 29/17 A30 RMK A01 T02870165  RH  048%=      5-min Rain = 0
KPG1 131740Z 05011KT 28/17 A30 RMK A01 T02840166  RH  049%=      5-min Rain = 0
KPG1 131741Z 05010KT 28/17 A30 RMK A01 T02840166  RH  049%=      5-min Rain = 0
KPG1 131742Z 04009KT 29/17 A30 RMK A01 T02860168  RH  049%=      5-min Rain = 0
KPG1 131743Z 04011KT 29/17 A30 RMK A01 T02880166  RH  048%=      5-min Rain = 0
KPG1 131744Z 03012KT 29/17 A30 RMK A01 T02880165  RH  047%=      5-min Rain = 0
KPG1 131745Z 03012KT 29/17 A30 RMK A01 T02880165  RH  047%=      5-min Rain = 0
KPG1 131746Z 03010KT 29/17 A30 RMK A01 T02870165  RH  048%=      5-min Rain = 0
KPG1 131747Z 03013KT 29/17 A30 RMK A01 T02870165  RH  048%=      5-min Rain = 0
KPG1 131748Z 04013G18KT 29/17 A30 RMK A01 T02860165  RH  048%=      5-min Rain = 0
KPG1 131749Z 04011KT 29/16 A30 RMK A01 T02870164  RH  048%=      5-min Rain = 0
KPG1 131750Z 04013KT 29/17 A30 RMK A01 T02920165  RH  046%=      5-min Rain = 0
KPG1 131751Z 03011KT 29/16 A30 RMK A01 T02930164  RH  046%=      5-min Rain = 0
KPG1 131752Z 03011KT 29/16 A30 RMK A01 T02930164  RH  046%=      5-min Rain = 0
KPG1 131753Z 04012KT 30/17 A30 RMK A01 T02970165  RH  045%=      5-min Rain = 0
KPG1 131754Z 05010KT 30/16 A30 RMK A01 T02960162  RH  044%=      5-min Rain = 0
KPG1 131755Z 04011KT 29/16 A30 RMK A01 T02930162  RH  045%=      5-min Rain = 0
KPG1 131756Z 06008KT 29/16 A30 RMK A01 T02910163  RH  046%=      5-min Rain = 0
KPG1 131757Z 05009KT 29/17 A30 RMK A01 T02910165  RH  047%=      5-min Rain = 0
KPG1 131758Z 06007KT 29/17 A30 RMK A01 T02940166  RH  046%=      5-min Rain = 0
KPG1 131759Z 04008KT 30/17 A30 RMK A01 T02950165  RH  046%=      5-min Rain = 0
KPG1 131800Z 04006KT 30/17 A30 RMK A01 T02960165  RH  045%=      5-min Rain = 0
KPG1 131801Z 03010KT 30/17 A30 RMK A01 T02970166  RH  045%=      5-min Rain = 0
KPG1 131802Z 02010KT 30/16 A30 RMK A01 T02970164  RH  045%=      5-min Rain = 0
KPG1 131803Z 04008KT 30/16 A30 RMK A01 T02960164  RH  045%=      5-min Rain = 0
KPG1 131804Z 05008KT 30/17 A30 RMK A01 T02970165  RH  045%=      5-min Rain = 0
KPG1 131805Z 04008KT 30/17 A3001 RMK A01 T03000165  RH  044%=      5-min Rain = 0
KPG1 131806Z 06008KT 30/17 A3001 RMK A01 T03010166  RH  044%=      5-min Rain = 0
KPG1 131807Z 02010KT 30/17 A30 RMK A01 T03030165  RH  043%=      5-min Rain = 0
KPG1 131808Z 02010KT 30/16 A30 RMK A01 T03040164  RH  043%=      5-min Rain = 0
KPG1 131809Z 03008KT 30/17 A30 RMK A01 T03040165  RH  043%=      5-min Rain = 0
KPG1 131810Z 07009KT 31/16 A3001 RMK A01 T03050164  RH  043%=      5-min Rain = 0
KPG1 131811Z 08009KT 30/16 A30 RMK A01 T03030161  RH  042%=      5-min Rain = 0
KPG1 131812Z 06010KT 30/16 A30 RMK A01 T03010160  RH  043%=      5-min Rain = 0
KPG1 131813Z 05008KT 30/16 A30 RMK A01 T02990160  RH  043%=      5-min Rain = 0
KPG1 131814Z 06008KT 30/16 A30 RMK A01 T02980161  RH  044%=      5-min Rain = 0
KPG1 131815Z 06007KT 30/16 A30 RMK A01 T03000161  RH  043%=      5-min Rain = 0
KPG1 131816Z 06006KT 30/16 A30 RMK A01 T03000161  RH  043%=      5-min Rain = 0
KPG1 131817Z 04007KT 30/16 A30 RMK A01 T03000161  RH  043%=      5-min Rain = 0
KPG1 131818Z 05008KT 30/16 A30 RMK A01 T03000161  RH  043%=      5-min Rain = 0
KPG1 131819Z 08007KT 30/16 A30 RMK A01 T02990161  RH  043%=      5-min Rain = 0
KPG1 131820Z 06007KT 30/16 A30 RMK A01 T02990160  RH  043%=      5-min Rain = 0
KPG1 131821Z 06007KT 30/16 A30 RMK A01 T03000159  RH  043%=      5-min Rain = 0
KPG1 131822Z 06011KT 30/16 A30 RMK A01 T03000160  RH  043%=      5-min Rain = 0
KPG1 131823Z 06013KT 30/15 A30 RMK A01 T03040152  RH  040%=      5-min Rain = 0
KPG1 131824Z 05011KT 30/15 A30 RMK A01 T03030151  RH  040%=      5-min Rain = 0
KPG1 131825Z 04010KT 30/15 A30 RMK A01 T03000150  RH  040%=      5-min Rain = 0
KPG1 131826Z 06008KT 30/15 A30 RMK A01 T02980150  RH  041%=      5-min Rain = 0
KPG1 131827Z 06009KT 30/15 A30 RMK A01 T02970149  RH  040%=      5-min Rain = 0
KPG1 131828Z 05006KT 30/15 A30 RMK A01 T02990149  RH  040%=      5-min Rain = 0
KPG1 131829Z 05007KT 30/15 A30 RMK A01 T03040151  RH  040%=      5-min Rain = 0
KPG1 131830Z 07009KT 31/16 A30 RMK A01 T03070155  RH  040%=      5-min Rain = 0
KPG1 131831Z 06008KT 31/15 A30 RMK A01 T03070152  RH  039%=      5-min Rain = 0
KPG1 131832Z 07005KT 31/15 A30 RMK A01 T03050150  RH  039%=      5-min Rain = 0
KPG1 131833Z 07005G10KT 30/15 A2999 RMK A01 T03030150  RH  040%=      5-min Rain = 0
KPG1 131834Z 07011KT 30/15 A2999 RMK A01 T03020148  RH  039%=      5-min Rain = 0
KPG1 131835Z 04009KT 30/15 A2999 RMK A01 T03010147  RH  039%=      5-min Rain = 0
KPG1 131836Z 07010KT 30/15 A2999 RMK A01 T03010147  RH  039%=      5-min Rain = 0
KPG1 131837Z 10010KT 30/14 A2999 RMK A01 T03030144  RH  038%=      5-min Rain = 0
KPG1 131838Z 09010KT 30/14 A2999 RMK A01 T03030144  RH  038%=      5-min Rain = 0
KPG1 131839Z 07008KT 30/15 A2999 RMK A01 T03040147  RH  038%=      5-min Rain = 0
KPG1 131840Z 07007KT 31/15 A2999 RMK A01 T03080148  RH  038%=      5-min Rain = 0
KPG1 131841Z 03008KT 31/14 A2999 RMK A01 T03130142  RH  036%=      5-min Rain = 0
KPG1 131842Z 03008KT 31/14 A2999 RMK A01 T03130140  RH  035%=      5-min Rain = 0
KPG1 131843Z 04006KT 31/14 A2999 RMK A01 T03130141  RH  035%=      5-min Rain = 0
KPG1 131844Z 03009KT 31/14 A2999 RMK A01 T03140141  RH  035%=      5-min Rain = 0
KPG1 131845Z 04009KT 31/14 A2999 RMK A01 T03140138  RH  034%=      5-min Rain = 0
KPG1 131846Z 07011KT 31/15 A2999 RMK A01 T03120147  RH  037%=      5-min Rain = 0
KPG1 131847Z 07011KT 31/15 A2998 RMK A01 T03110149  RH  038%=      5-min Rain = 0
KPG1 131848Z 07007KT 31/15 A2999 RMK A01 T03100147  RH  037%=      5-min Rain = 0
KPG1 131849Z 06007KT 31/15 A2998 RMK A01 T03080147  RH  038%=      5-min Rain = 0
KPG1 131850Z 08010KT 31/15 A2998 RMK A01 T03110145  RH  037%=      5-min Rain = 0
KPG1 131851Z 05009KT 31/14 A2998 RMK A01 T03110144  RH  036%=      5-min Rain = 0
KPG1 131852Z 02010KT 31/15 A2998 RMK A01 T03130146  RH  036%=      5-min Rain = 0
KPG1 131853Z 03008KT 31/15 A2998 RMK A01 T03140146  RH  036%=      5-min Rain = 0
KPG1 131854Z 02010KT 31/15 A2998 RMK A01 T03110147  RH  037%=      5-min Rain = 0
KPG1 131855Z 04008KT 31/15 A2998 RMK A01 T03110148  RH  037%=      5-min Rain = 0
KPG1 131856Z 06010KT 31/15 A2998 RMK A01 T03090149  RH  038%=      5-min Rain = 0
KPG1 131857Z 07010KT 31/15 A2998 RMK A01 T03090149  RH  038%=      5-min Rain = 0
KPG1 131858Z 08006KT 31/15 A2998 RMK A01 T03090149  RH  038%=      5-min Rain = 0
KPG1 131859Z 12004KT 31/15 A2998 RMK A01 T03080149  RH  038%=      5-min Rain = 0
KPG1 131900Z 08006G13KT 31/15 A2998 RMK A01 T03100147  RH  037%=      5-min Rain = 0
KPG1 131901Z 06012KT 31/15 A2998 RMK A01 T03110146  RH  037%=      5-min Rain = 0
KPG1 131902Z 05010KT 31/15 A2998 RMK A01 T03110145  RH  036%=      5-min Rain = 0
KPG1 131903Z 07013KT 31/14 A2998 RMK A01 T03120142  RH  036%=      5-min Rain = 0
KPG1 131904Z 07012KT 31/14 A2998 RMK A01 T03120140  RH  035%=      5-min Rain = 0
KPG1 131905Z 06011KT 31/14 A2998 RMK A01 T03120138  RH  035%=      5-min Rain = 0
KPG1 131906Z 06013KT 31/14 A2998 RMK A01 T03130136  RH  034%=      5-min Rain = 0
KPG1 131907Z 06013KT 31/14 A2998 RMK A01 T03120136  RH  034%=      5-min Rain = 0
KPG1 131908Z 07011KT 31/14 A2998 RMK A01 T03110135  RH  034%=      5-min Rain = 0
KPG1 131909Z 06005KT 31/14 A2998 RMK A01 T03120136  RH  034%=      5-min Rain = 0
KPG1 131910Z 07005KT 32/14 A2998 RMK A01 T03180139  RH  034%=      5-min Rain = 0
KPG1 131911Z 08007KT 32/14 A2997 RMK A01 T03240141  RH  033%=      5-min Rain = 0
KPG1 131912Z 05007KT 33/14 A2997 RMK A01 T03260139  RH  032%=      5-min Rain = 0
KPG1 131913Z 07009KT 33/14 A2997 RMK A01 T03270136  RH  031%=      5-min Rain = 0
KPG1 131914Z 09011KT 33/14 A2997 RMK A01 T03270138  RH  032%=      5-min Rain = 0
KPG1 131915Z 07009KT 33/14 A2997 RMK A01 T03250136  RH  032%=      5-min Rain = 0
KPG1 131916Z 05008KT 32/14 A2997 RMK A01 T03210135  RH  032%=      5-min Rain = 0
KPG1 131917Z 06009KT 32/14 A2997 RMK A01 T03200136  RH  033%=      5-min Rain = 0
KPG1 131918Z 07014KT 32/13 A2997 RMK A01 T03190129  RH  031%=      5-min Rain = 0
KPG1 131919Z 07014KT 32/12 A2997 RMK A01 T03180120  RH  030%=      5-min Rain = 0
KPG1 131920Z 07013KT 32/13 A2997 RMK A01 T03170125  RH  031%=      5-min Rain = 0
KPG1 131921Z 08008KT 32/13 A2997 RMK A01 T03160126  RH  032%=      5-min Rain = 0
KPG1 131922Z 07006KT 32/13 A2997 RMK A01 T03150129  RH  032%=      5-min Rain = 0
KPG1 131923Z 06012KT 32/13 A2997 RMK A01 T03180129  RH  031%=      5-min Rain = 0
KPG1 131924Z 08010G15KT 32/13 A2997 RMK A01 T03210127  RH  031%=      5-min Rain = 0
KPG1 131925Z 07011KT 33/13 A2997 RMK A01 T03260127  RH  030%=      5-min Rain = 0
KPG1 131926Z 04012KT 32/13 A2997 RMK A01 T03240127  RH  030%=      5-min Rain = 0
KPG1 131927Z 04012KT 32/13 A2997 RMK A01 T03210128  RH  031%=      5-min Rain = 0
KPG1 131928Z 06009KT 32/13 A2997 RMK A01 T03230130  RH  031%=      5-min Rain = 0
KPG1 131929Z 08009KT 33/13 A2997 RMK A01 T03290126  RH  029%=      5-min Rain = 0
KPG1 131930Z 07010KT 33/12 A2997 RMK A01 T03300123  RH  028%=      5-min Rain = 0
KPG1 131931Z 07007KT 33/12 A2997 RMK A01 T03260123  RH  029%=      5-min Rain = 0
KPG1 131932Z 06009KT 33/13 A2997 RMK A01 T03260125  RH  030%=      5-min Rain = 0
KPG1 131933Z 06006KT 33/13 A2997 RMK A01 T03260127  RH  030%=      5-min Rain = 0
KPG1 131934Z 08006KT 33/13 A2997 RMK A01 T03250130  RH  031%=      5-min Rain = 0
KPG1 131935Z 04008KT 33/13 A2997 RMK A01 T03260127  RH  030%=      5-min Rain = 0
KPG1 131936Z 05009KT 33/12 A2996 RMK A01 T03270124  RH  029%=      5-min Rain = 0
KPG1 131937Z 07008KT 33/13 A2996 RMK A01 T03290126  RH  029%=      5-min Rain = 0
KPG1 131938Z 03006KT 33/12 A2997 RMK A01 T03310123  RH  028%=      5-min Rain = 0
KPG1 131939Z 03005KT 33/12 A2996 RMK A01 T03290122  RH  028%=      5-min Rain = 0
KPG1 131940Z 08010KT 33/13 A2996 RMK A01 T03300130  RH  030%=      5-min Rain = 0
KPG1 131941Z 08010KT 33/13 A2996 RMK A01 T03300134  RH  031%=      5-min Rain = 0
KPG1 131942Z 06011KT 33/13 A2996 RMK A01 T03290133  RH  030%=      5-min Rain = 0
KPG1 131943Z 03008KT 33/13 A2996 RMK A01 T03300132  RH  030%=      5-min Rain = 0
KPG1 131944Z 05009KT 34/13 A2996 RMK A01 T03390134  RH  029%=      5-min Rain = 0
KPG1 131945Z 07005KT 34/13 A2996 RMK A01 T03380131  RH  029%=      5-min Rain = 0
KPG1 131946Z 02008KT 33/13 A2996 RMK A01 T03340129  RH  029%=      5-min Rain = 0
KPG1 131947Z 04009KT 33/13 A2996 RMK A01 T03300126  RH  029%=      5-min Rain = 0
KPG1 131948Z 06006KT 33/12 A2996 RMK A01 T03300124  RH  029%=      5-min Rain = 0
KPG1 131949Z 09005KT 33/13 A2996 RMK A01 T03310127  RH  029%=      5-min Rain = 0
KPG1 131950Z 07006KT 33/13 A2996 RMK A01 T03340131  RH  029%=      5-min Rain = 0
KPG1 131951Z 03007KT 33/13 A2996 RMK A01 T03340132  RH  029%=      5-min Rain = 0
KPG1 131952Z 02007KT 33/13 A2996 RMK A01 T03330132  RH  030%=      5-min Rain = 0
KPG1 131953Z 03012KT 33/14 A2996 RMK A01 T03330135  RH  030%=      5-min Rain = 0
KPG1 131954Z 03008KT 33/14 A2996 RMK A01 T03320139  RH  031%=      5-min Rain = 0
KPG1 131955Z 03009KT 33/14 A2995 RMK A01 T03310140  RH  032%=      5-min Rain = 0
KPG1 131956Z 07010KT 33/14 A2995 RMK A01 T03320140  RH  031%=      5-min Rain = 0
KPG1 131957Z 06010KT 33/14 A2995 RMK A01 T03320141  RH  031%=      5-min Rain = 0
KPG1 131958Z 07011KT 33/14 A2995 RMK A01 T03340143  RH  032%=      5-min Rain = 0
KPG1 131959Z 08014KT 34/14 A2995 RMK A01 T03370141  RH  031%=      5-min Rain = 0
KPG1 132000Z 09014KT 34/14 A2995 RMK A01 T03370140  RH  031%=      5-min Rain = 0
KPG1 132001Z 09014KT 33/14 A2995 RMK A01 T03330137  RH  031%=      5-min Rain = 0
KPG1 132002Z 08010G16KT 33/14 A2995 RMK A01 T03270137  RH  032%=      5-min Rain = 0
KPG1 132003Z 08009KT 33/14 A2995 RMK A01 T03280137  RH  031%=      5-min Rain = 0
KPG1 132004Z 08013KT 33/14 A2995 RMK A01 T03310138  RH  031%=      5-min Rain = 0
KPG1 132005Z 09011KT 33/14 A2995 RMK A01 T03300137  RH  031%=      5-min Rain = 0
KPG1 132006Z 06011KT 33/14 A2995 RMK A01 T03280138  RH  032%=      5-min Rain = 0
KPG1 132007Z 04006KT 33/14 A2995 RMK A01 T03290135  RH  031%=      5-min Rain = 0
KPG1 132008Z 05004KT 33/13 A2995 RMK A01 T03280133  RH  031%=      5-min Rain = 0
KPG1 132009Z 07012G17KT 33/13 A2995 RMK A01 T03280131  RH  030%=      5-min Rain = 0
KPG1 132010Z 07010KT 33/12 A2995 RMK A01 T03270119  RH  028%=      5-min Rain = 0
KPG1 132011Z 07012KT 33/12 A2995 RMK A01 T03280116  RH  027%=      5-min Rain = 0
KPG1 132012Z 06010KT 33/11 A2995 RMK A01 T03300112  RH  026%=      5-min Rain = 0
KPG1 132013Z 06010KT 33/11 A2995 RMK A01 T03310105  RH  025%=      5-min Rain = 0
KPG1 132014Z 06008G13KT 33/12 A2995 RMK A01 T03320117  RH  027%=      5-min Rain = 0
KPG1 132015Z 05008KT 33/12 A2995 RMK A01 T03340121  RH  028%=      5-min Rain = 0
KPG1 132016Z 08009G17KT 33/13 A2995 RMK A01 T03340125  RH  028%=      5-min Rain = 0
KPG1 132017Z 07016KT 33/13 A2995 RMK A01 T03340128  RH  029%=      5-min Rain = 0
KPG1 132018Z 09010KT 33/13 A2995 RMK A01 T03300128  RH  029%=      5-min Rain = 0
KPG1 132019Z 09013KT 33/13 A2995 RMK A01 T03270126  RH  029%=      5-min Rain = 0
KPG1 132020Z 07012KT 33/12 A2994 RMK A01 T03250123  RH  029%=      5-min Rain = 0
KPG1 132021Z 06006KT 33/12 A2994 RMK A01 T03270116  RH  028%=      5-min Rain = 0
KPG1 132022Z 07010G15KT 33/12 A2994 RMK A01 T03280115  RH  027%=      5-min Rain = 0
KPG1 132023Z 06012KT 33/12 A2994 RMK A01 T03320120  RH  028%=      5-min Rain = 0
KPG1 132024Z 07012KT 33/12 A2994 RMK A01 T03340124  RH  028%=      5-min Rain = 0
KPG1 132025Z 06009KT 33/13 A2994 RMK A01 T03340126  RH  028%=      5-min Rain = 0
KPG1 132026Z 06006KT 34/13 A2994 RMK A01 T03350126  RH  028%=      5-min Rain = 0
KPG1 132027Z 08005KT 34/13 A2994 RMK A01 T03350125  RH  028%=      5-min Rain = 0
KPG1 132028Z 09006KT 33/13 A2994 RMK A01 T03340126  RH  028%=      5-min Rain = 0
KPG1 132029Z 07009G17KT 34/13 A2994 RMK A01 T03350126  RH  028%=      5-min Rain = 0
KPG1 132030Z 05013KT 34/13 A2994 RMK A01 T03350125  RH  028%=      5-min Rain = 0
KPG1 132031Z 05012KT 34/13 A2994 RMK A01 T03350126  RH  028%=      5-min Rain = 0
KPG1 132032Z 05009KT 33/13 A2994 RMK A01 T03320127  RH  029%=      5-min Rain = 0
KPG1 132033Z 04007KT 33/13 A2993 RMK A01 T03290128  RH  030%=      5-min Rain = 0
KPG1 132034Z 06009KT 33/13 A2993 RMK A01 T03270129  RH  030%=      5-min Rain = 0
KPG1 132035Z 06011KT 33/13 A2993 RMK A01 T03300131  RH  030%=      5-min Rain = 0
KPG1 132036Z 06013KT 33/13 A2993 RMK A01 T03310131  RH  030%=      5-min Rain = 0
KPG1 132037Z 05013KT 34/13 A2993 RMK A01 T03370133  RH  029%=      5-min Rain = 0
KPG1 132038Z 07014KT 34/13 A2993 RMK A01 T03380131  RH  029%=      5-min Rain = 0
KPG1 132039Z 06011KT 34/13 A2993 RMK A01 T03350129  RH  029%=      5-min Rain = 0
KPG1 132040Z 06011KT 33/13 A2993 RMK A01 T03320128  RH  029%=      5-min Rain = 0
KPG1 132041Z 06009KT 33/13 A2993 RMK A01 T03320128  RH  029%=      5-min Rain = 0
KPG1 132042Z 04007KT 33/13 A2993 RMK A01 T03320125  RH  028%=      5-min Rain = 0
KPG1 132043Z 02010KT 34/12 A2993 RMK A01 T03350124  RH  028%=      5-min Rain = 0
KPG1 132044Z 02007KT 34/13 A2992 RMK A01 T03350126  RH  028%=      5-min Rain = 0
KPG1 132045Z 03006KT 33/13 A2992 RMK A01 T03330126  RH  028%=      5-min Rain = 0
KPG1 132046Z 04005KT 33/13 A2992 RMK A01 T03340127  RH  029%=      5-min Rain = 0
KPG1 132047Z 06007KT 34/13 A2992 RMK A01 T03390130  RH  028%=      5-min Rain = 0
KPG1 132048Z 11008KT 34/13 A2992 RMK A01 T03410130  RH  028%=      5-min Rain = 0
KPG1 132049Z 14010G15KT 34/13 A2992 RMK A01 T03400128  RH  028%=      5-min Rain = 0
KPG1 132050Z 12009KT 34/13 A2992 RMK A01 T03380127  RH  028%=      5-min Rain = 0
KPG1 132051Z 11004KT 34/13 A2992 RMK A01 T03380128  RH  028%=      5-min Rain = 0
KPG1 132052Z 13008KT 34/13 A2992 RMK A01 T03390126  RH  028%=      5-min Rain = 0
KPG1 132053Z 11007KT 34/13 A2992 RMK A01 T03420129  RH  028%=      5-min Rain = 0
KPG1 132054Z 06011KT 34/13 A2992 RMK A01 T03410126  RH  027%=      5-min Rain = 0
KPG1 132055Z 08009G14KT 34/12 A2992 RMK A01 T03380124  RH  027%=      5-min Rain = 0
KPG1 132056Z 05010KT 34/12 A2992 RMK A01 T03360123  RH  027%=      5-min Rain = 0
KPG1 132057Z 06010KT 34/12 A2992 RMK A01 T03370123  RH  027%=      5-min Rain = 0
KPG1 132058Z 05009KT 34/12 A2992 RMK A01 T03370120  RH  027%=      5-min Rain = 0
KPG1 132059Z 05011KT 34/12 A2992 RMK A01 T03350120  RH  027%=      5-min Rain = 0
KPG1 132100Z 05010G15KT 34/12 A2992 RMK A01 T03360121  RH  027%=      5-min Rain = 0
KPG1 132101Z 06011KT 34/12 A2992 RMK A01 T03400121  RH  026%=      5-min Rain = 0
KPG1 132102Z 05009KT 34/12 A2992 RMK A01 T03410120  RH  026%=      5-min Rain = 0
KPG1 132103Z 04004KT 34/12 A2992 RMK A01 T03390120  RH  026%=      5-min Rain = 0
KPG1 132104Z 01002KT 34/12 A2991 RMK A01 T03390116  RH  026%=      5-min Rain = 0
KPG1 132105Z 02007KT 34/12 A2991 RMK A01 T03370116  RH  026%=      5-min Rain = 0
KPG1 132106Z 06009G15KT 34/12 A2991 RMK A01 T03380117  RH  026%=      5-min Rain = 0
KPG1 132107Z 11012G17KT 34/12 A2991 RMK A01 T03410121  RH  026%=      5-min Rain = 0
KPG1 132108Z 12006KT 34/12 A2991 RMK A01 T03430121  RH  026%=      5-min Rain = 0
KPG1 132109Z 12004KT 35/12 A2991 RMK A01 T03480118  RH  025%=      5-min Rain = 0
KPG1 132110Z 04003KT 35/12 A2991 RMK A01 T03510116  RH  024%=      5-min Rain = 0
KPG1 132111Z 05006KT 35/11 A2991 RMK A01 T03540113  RH  023%=      5-min Rain = 0
KPG1 132112Z 06005KT 35/11 A2991 RMK A01 T03530112  RH  023%=      5-min Rain = 0
KPG1 132113Z 08008KT 35/11 A2991 RMK A01 T03490114  RH  024%=      5-min Rain = 0
KPG1 132114Z 08006KT 35/12 A2991 RMK A01 T03470115  RH  024%=      5-min Rain = 0
KPG1 132115Z 08006KT 34/11 A2991 RMK A01 T03440114  RH  025%=      5-min Rain = 0
KPG1 132116Z 08011KT 34/12 A2991 RMK A01 T03430115  RH  025%=      5-min Rain = 0
KPG1 132117Z 06011KT 34/11 A2991 RMK A01 T03420114  RH  025%=      5-min Rain = 0
KPG1 132118Z 06008G13KT 34/11 A2991 RMK A01 T03400114  RH  025%=      5-min Rain = 0
KPG1 132119Z 05010G16KT 34/11 A2991 RMK A01 T03400113  RH  025%=      5-min Rain = 0
KPG1 132120Z 02011KT 34/11 A2991 RMK A01 T03430111  RH  024%=      5-min Rain = 0
KPG1 132121Z 02009KT 34/11 A2991 RMK A01 T03420111  RH  025%=      5-min Rain = 0
KPG1 132122Z 02009KT 34/11 A2991 RMK A01 T03420111  RH  025%=      5-min Rain = 0
KPG1 132123Z 03008KT 34/11 A2991 RMK A01 T03410111  RH  025%=      5-min Rain = 0
KPG1 132124Z 03009KT 34/11 A2991 RMK A01 T03430113  RH  025%=      5-min Rain = 0
KPG1 132125Z 02007KT 34/11 A2991 RMK A01 T03440113  RH  025%=      5-min Rain = 0
KPG1 132126Z 04005KT 34/11 A299 RMK A01 T03430111  RH  024%=      5-min Rain = 0
KPG1 132127Z 03007KT 34/11 A299 RMK A01 T03440110  RH  024%=      5-min Rain = 0
KPG1 132128Z 07005KT 35/11 A299 RMK A01 T03470112  RH  024%=      5-min Rain = 0
KPG1 132129Z 08007KT 35/11 A299 RMK A01 T03510113  RH  024%=      5-min Rain = 0
KPG1 132130Z 06008KT 35/11 A299 RMK A01 T03510113  RH  024%=      5-min Rain = 0
KPG1 132131Z 06008KT 35/11 A299 RMK A01 T03490110  RH  024%=      5-min Rain = 0
KPG1 132132Z 06008KT 34/11 A299 RMK A01 T03440108  RH  024%=      5-min Rain = 0
KPG1 132133Z 08010KT 35/11 A299 RMK A01 T03460107  RH  023%=      5-min Rain = 0
KPG1 132134Z 08010KT 35/11 A299 RMK A01 T03460105  RH  023%=      5-min Rain = 0
KPG1 132135Z 08009KT 34/11 A299 RMK A01 T03430105  RH  023%=      5-min Rain = 0
KPG1 132136Z 06011KT 34/10 A299 RMK A01 T03400104  RH  024%=      5-min Rain = 0
KPG1 132137Z 07008KT 34/10 A299 RMK A01 T03400104  RH  024%=      5-min Rain = 0
KPG1 132138Z 10010KT 34/10 A299 RMK A01 T03410103  RH  023%=      5-min Rain = 0
KPG1 132139Z 09010KT 34/10 A299 RMK A01 T03420104  RH  023%=      5-min Rain = 0
KPG1 132140Z 10008KT 34/11 A299 RMK A01 T03410106  RH  024%=      5-min Rain = 0
KPG1 132141Z 09010KT 34/11 A299 RMK A01 T03410107  RH  024%=      5-min Rain = 0
KPG1 132142Z 09007KT 34/11 A299 RMK A01 T03410107  RH  024%=      5-min Rain = 0
KPG1 132143Z 08008KT 34/11 A299 RMK A01 T03410108  RH  024%=      5-min Rain = 0
KPG1 132144Z 08008KT 34/11 A299 RMK A01 T03410107  RH  024%=      5-min Rain = 0
KPG1 132145Z 03007KT 34/11 A299 RMK A01 T03410105  RH  024%=      5-min Rain = 0
KPG1 132146Z 03007KT 34/11 A299 RMK A01 T03440105  RH  023%=      5-min Rain = 0
KPG1 132147Z 02008KT 35/11 A299 RMK A01 T03470107  RH  023%=      5-min Rain = 0
KPG1 132148Z 03007KT 35/11 A2989 RMK A01 T03490106  RH  023%=      5-min Rain = 0
KPG1 132149Z 02006KT 35/11 A299 RMK A01 T03510106  RH  023%=      5-min Rain = 0
KPG1 132150Z 07010KT 35/11 A299 RMK A01 T03540106  RH  022%=      5-min Rain = 0
KPG1 132151Z 07009KT 35/11 A299 RMK A01 T03500106  RH  023%=      5-min Rain = 0
KPG1 132152Z 09008G14KT 35/10 A2989 RMK A01 T03460104  RH  023%=      5-min Rain = 0
KPG1 132153Z 06005KT 35/11 A2989 RMK A01 T03490106  RH  023%=      5-min Rain = 0
KPG1 132154Z 09007KT 35/11 A2989 RMK A01 T03540108  RH  023%=      5-min Rain = 0
KPG1 132155Z 09005KT 35/11 A2989 RMK A01 T03520108  RH  023%=      5-min Rain = 0
KPG1 132156Z 04004KT 35/11 A2989 RMK A01 T03490109  RH  023%=      5-min Rain = 0
KPG1 132157Z 04009KT 35/11 A2989 RMK A01 T03500110  RH  023%=      5-min Rain = 0
KPG1 132158Z 03010KT 35/11 A2989 RMK A01 T03500107  RH  023%=      5-min Rain = 0
KPG1 132159Z 05009KT 35/11 A2989 RMK A01 T03480107  RH  023%=      5-min Rain = 0
KPG1 132200Z 05008KT 35/11 A2989 RMK A01 T03460107  RH  023%=      5-min Rain = 0
KPG1 132201Z 08009KT 35/11 A2989 RMK A01 T03480108  RH  023%=      5-min Rain = 0
KPG1 132202Z 05010KT 35/11 A2989 RMK A01 T03510107  RH  023%=      5-min Rain = 0
KPG1 132203Z 04008KT 35/11 A2989 RMK A01 T03500106  RH  023%=      5-min Rain = 0
KPG1 132204Z 03007KT 35/11 A2989 RMK A01 T03480105  RH  023%=      5-min Rain = 0
KPG1 132205Z 01008KT 35/10 A2989 RMK A01 T03450104  RH  023%=      5-min Rain = 0
KPG1 132206Z 02009KT 35/11 A2988 RMK A01 T03450105  RH  023%=      5-min Rain = 0
KPG1 132207Z 02006KT 35/11 A2988 RMK A01 T03480105  RH  023%=      5-min Rain = 0
KPG1 132208Z 05011KT 35/10 A2988 RMK A01 T03500103  RH  022%=      5-min Rain = 0
KPG1 132209Z 06011KT 35/10 A2988 RMK A01 T03510104  RH  022%=      5-min Rain = 0
KPG1 132210Z 06012KT 35/10 A2989 RMK A01 T03500102  RH  022%=      5-min Rain = 0
KPG1 132211Z 06009KT 35/10 A2989 RMK A01 T03490100  RH  022%=      5-min Rain = 0
KPG1 132212Z 06009KT 35/10 A2989 RMK A01 T03500100  RH  022%=      5-min Rain = 0
KPG1 132213Z 08012KT 35/10 A2989 RMK A01 T03500101  RH  022%=      5-min Rain = 0
KPG1 132214Z 06008KT 35/10 A2989 RMK A01 T03470099  RH  022%=      5-min Rain = 0
KPG1 132215Z 06007KT 34/10 A2989 RMK A01 T03440102  RH  023%=      5-min Rain = 0
KPG1 132216Z 06008KT 34/10 A2988 RMK A01 T03430103  RH  023%=      5-min Rain = 0
KPG1 132217Z 08008KT 34/10 A2989 RMK A01 T03440103  RH  023%=      5-min Rain = 0
KPG1 132218Z 08007KT 34/10 A2988 RMK A01 T03440102  RH  023%=      5-min Rain = 0
KPG1 132219Z 08007KT 34/10 A2988 RMK A01 T03440097  RH  022%=      5-min Rain = 0
KPG1 132220Z 10005KT 34/10 A2988 RMK A01 T03430097  RH  022%=      5-min Rain = 0
KPG1 132221Z 12003KT 34/10 A2988 RMK A01 T03420098  RH  022%=      5-min Rain = 0
KPG1 132222Z 07006KT 34/10 A2988 RMK A01 T03410102  RH  023%=      5-min Rain = 0
KPG1 132223Z 04006KT 34/11 A2988 RMK A01 T03440106  RH  023%=      5-min Rain = 0
KPG1 132224Z 04002KT 34/11 A2988 RMK A01 T03440108  RH  024%=      5-min Rain = 0
KPG1 132225Z 08002KT 34/11 A2988 RMK A01 T03440109  RH  024%=      5-min Rain = 0
KPG1 132226Z 10001KT 34/11 A2988 RMK A01 T03440109  RH  024%=      5-min Rain = 0
KPG1 132227Z 06002KT 35/11 A2988 RMK A01 T03450110  RH  024%=      5-min Rain = 0
KPG1 132228Z 07007G12KT 35/11 A2988 RMK A01 T03450110  RH  024%=      5-min Rain = 0
KPG1 132229Z 08009KT 35/11 A2988 RMK A01 T03490113  RH  024%=      5-min Rain = 0
KPG1 132230Z 07010KT 35/11 A2988 RMK A01 T03520112  RH  023%=      5-min Rain = 0
KPG1 132231Z 07010KT 35/11 A2988 RMK A01 T03510110  RH  023%=      5-min Rain = 0
KPG1 132232Z 05011KT 35/11 A2988 RMK A01 T03480109  RH  023%=      5-min Rain = 0
KPG1 132233Z 03011KT 35/11 A2988 RMK A01 T03450108  RH  024%=      5-min Rain = 0
KPG1 132234Z 07008KT 34/11 A2988 RMK A01 T03440107  RH  024%=      5-min Rain = 0
KPG1 132235Z 08004KT 34/11 A2988 RMK A01 T03420105  RH  024%=      5-min Rain = 0
KPG1 132236Z 10005KT 34/11 A2988 RMK A01 T03420106  RH  024%=      5-min Rain = 0
KPG1 132237Z 05003KT 34/11 A2988 RMK A01 T03430106  RH  024%=      5-min Rain = 0
KPG1 132238Z 01006KT 34/11 A2987 RMK A01 T03420108  RH  024%=      5-min Rain = 0
KPG1 132239Z 02010KT 34/11 A2987 RMK A01 T03430109  RH  024%=      5-min Rain = 0
KPG1 132240Z 02007KT 34/11 A2987 RMK A01 T03440109  RH  024%=      5-min Rain = 0
KPG1 132241Z 04008KT 34/11 A2987 RMK A01 T03420109  RH  024%=      5-min Rain = 0
KPG1 132242Z 04007KT 34/11 A2987 RMK A01 T03410109  RH  024%=      5-min Rain = 0
KPG1 132243Z 05006KT 34/11 A2987 RMK A01 T03420108  RH  024%=      5-min Rain = 0
KPG1 132244Z 08011KT 34/11 A2987 RMK A01 T03440106  RH  023%=      5-min Rain = 0
KPG1 132245Z 07010KT 34/10 A2988 RMK A01 T03430104  RH  023%=      5-min Rain = 0
KPG1 132246Z 06009KT 34/10 A2988 RMK A01 T03390102  RH  023%=      5-min Rain = 0
KPG1 132247Z 06007KT 34/10 A2987 RMK A01 T03380101  RH  023%=      5-min Rain = 0
KPG1 132248Z 09006KT 34/10 A2987 RMK A01 T03380102  RH  024%=      5-min Rain = 0
KPG1 132249Z 08006KT 34/10 A2987 RMK A01 T03390102  RH  024%=      5-min Rain = 0
KPG1 132250Z 05009KT 34/10 A2987 RMK A01 T03390102  RH  024%=      5-min Rain = 0
KPG1 132251Z 07009KT 34/10 A2987 RMK A01 T03400103  RH  024%=      5-min Rain = 0
KPG1 132252Z 08006KT 34/11 A2987 RMK A01 T03410106  RH  024%=      5-min Rain = 0
KPG1 132253Z 08007KT 34/11 A2987 RMK A01 T03440107  RH  024%=      5-min Rain = 0
KPG1 132254Z 08008KT 35/11 A2987 RMK A01 T03450107  RH  024%=      5-min Rain = 0
KPG1 132255Z 06010KT 34/11 A2987 RMK A01 T03440107  RH  024%=      5-min Rain = 0
KPG1 132256Z 06012KT 34/11 A2987 RMK A01 T03420105  RH  024%=      5-min Rain = 0
KPG1 132257Z 06012KT 34/10 A2987 RMK A01 T03400104  RH  024%=      5-min Rain = 0
KPG1 132258Z 05009KT 34/10 A2987 RMK A01 T03390103  RH  024%=      5-min Rain = 0
KPG1 132259Z 05004KT 34/10 A2987 RMK A01 T03380103  RH  024%=      5-min Rain = 0
KPG1 132300Z 06008KT 34/10 A2987 RMK A01 T03390103  RH  024%=      5-min Rain = 0
KPG1 132301Z 05012G18KT 34/11 A2987 RMK A01 T03410105  RH  024%=      5-min Rain = 0
KPG1 132302Z 05015KT 34/11 A2987 RMK A01 T03430106  RH  024%=      5-min Rain = 0
KPG1 132303Z 05010KT 34/11 A2987 RMK A01 T03420105  RH  024%=      5-min Rain = 0
KPG1 132304Z 05008KT 34/11 A2987 RMK A01 T03410106  RH  024%=      5-min Rain = 0
KPG1 132305Z 05010KT 34/11 A2987 RMK A01 T03410106  RH  024%=      5-min Rain = 0
KPG1 132306Z 07008KT 34/11 A2987 RMK A01 T03420106  RH  024%=      5-min Rain = 0
KPG1 132307Z 06008KT 34/11 A2987 RMK A01 T03430106  RH  024%=      5-min Rain = 0
KPG1 132308Z 04009KT 35/11 A2987 RMK A01 T03460106  RH  023%=      5-min Rain = 0
KPG1 132309Z 05008KT 35/11 A2987 RMK A01 T03470106  RH  023%=      5-min Rain = 0
KPG1 132310Z 05006KT 35/11 A2987 RMK A01 T03480105  RH  023%=      5-min Rain = 0
KPG1 132311Z 03011KT 35/11 A2987 RMK A01 T03490105  RH  023%=      5-min Rain = 0
KPG1 132312Z 02010KT 35/10 A2987 RMK A01 T03490104  RH  023%=      5-min Rain = 0
KPG1 132313Z 03009KT 35/11 A2987 RMK A01 T03490105  RH  023%=      5-min Rain = 0
KPG1 132314Z 06012KT 35/11 A2987 RMK A01 T03510105  RH  022%=      5-min Rain = 0
KPG1 132315Z 07017G22KT 35/11 A2987 RMK A01 T03500105  RH  023%=      5-min Rain = 0
KPG1 132316Z 06016KT 35/11 A2987 RMK A01 T03480105  RH  023%=      5-min Rain = 0
KPG1 132317Z 06014KT 35/10 A2987 RMK A01 T03450104  RH  023%=      5-min Rain = 0
KPG1 132318Z 06017KT 34/10 A2987 RMK A01 T03430104  RH  023%=      5-min Rain = 0
KPG1 132319Z 06018KT 34/11 A2987 RMK A01 T03430105  RH  023%=      5-min Rain = 0
KPG1 132320Z 06016KT 34/10 A2987 RMK A01 T03430104  RH  023%=      5-min Rain = 0
KPG1 132321Z 07011KT 34/10 A2987 RMK A01 T03430104  RH  023%=      5-min Rain = 0
KPG1 132322Z 07009KT 35/11 A2987 RMK A01 T03450105  RH  023%=      5-min Rain = 0
KPG1 132323Z 08011KT 35/11 A2987 RMK A01 T03470105  RH  023%=      5-min Rain = 0
KPG1 132324Z 07009KT 35/11 A2987 RMK A01 T03480105  RH  023%=      5-min Rain = 0
KPG1 132325Z 08010KT 35/11 A2987 RMK A01 T03480105  RH  023%=      5-min Rain = 0
KPG1 132326Z 07009KT 35/11 A2987 RMK A01 T03490105  RH  023%=      5-min Rain = 0
KPG1 132327Z 06010KT 35/10 A2987 RMK A01 T03480104  RH  023%=      5-min Rain = 0
KPG1 132328Z 06013KT 35/10 A2986 RMK A01 T03460103  RH  023%=      5-min Rain = 0
KPG1 132329Z 07015KT 34/10 A2986 RMK A01 T03440104  RH  023%=      5-min Rain = 0
KPG1 132330Z 07012KT 34/10 A2986 RMK A01 T03430104  RH  023%=      5-min Rain = 0
KPG1 132331Z 06011KT 34/10 A2986 RMK A01 T03420104  RH  023%=      5-min Rain = 0
KPG1 132332Z 06010KT 34/10 A2986 RMK A01 T03440104  RH  023%=      5-min Rain = 0
KPG1 132333Z 05010KT 35/11 A2986 RMK A01 T03470105  RH  023%=      5-min Rain = 0
KPG1 132334Z 07012KT 35/10 A2986 RMK A01 T03490104  RH  023%=      5-min Rain = 0
KPG1 132335Z 08013KT 35/10 A2986 RMK A01 T03470103  RH  023%=      5-min Rain = 0
KPG1 132336Z 08009KT 34/10 A2986 RMK A01 T03440103  RH  023%=      5-min Rain = 0
KPG1 132337Z 08007KT 34/10 A2986 RMK A01 T03430103  RH  023%=      5-min Rain = 0
KPG1 132338Z 07007KT 34/10 A2986 RMK A01 T03430103  RH  023%=      5-min Rain = 0
KPG1 132339Z 04010KT 35/10 A2986 RMK A01 T03460104  RH  023%=      5-min Rain = 0
KPG1 132340Z 04009KT 35/10 A2986 RMK A01 T03490104  RH  023%=      5-min Rain = 0
KPG1 132341Z 04007KT 35/10 A2986 RMK A01 T03500103  RH  022%=      5-min Rain = 0
KPG1 132342Z 06011KT 35/10 A2986 RMK A01 T03510104  RH  022%=      5-min Rain = 0
KPG1 132343Z 06010KT 35/10 A2986 RMK A01 T03530104  RH  022%=      5-min Rain = 0
KPG1 132344Z 06010KT 35/10 A2986 RMK A01 T03510104  RH  022%=      5-min Rain = 0
KPG1 132345Z 05010KT 35/11 A2986 RMK A01 T03520105  RH  022%=      5-min Rain = 0
KPG1 132346Z 07011KT 35/11 A2986 RMK A01 T03540106  RH  022%=      5-min Rain = 0
KPG1 132347Z 09008KT 35/10 A2986 RMK A01 T03520104  RH  022%=      5-min Rain = 0
KPG1 132348Z 08008KT 35/11 A2986 RMK A01 T03510105  RH  022%=      5-min Rain = 0
KPG1 132349Z 06010KT 35/11 A2986 RMK A01 T03490109  RH  023%=      5-min Rain = 0
KPG1 132350Z 04015G20KT 35/11 A2986 RMK A01 T03470110  RH  024%=      5-min Rain = 0
KPG1 132351Z 09011G17KT 35/11 A2986 RMK A01 T03460110  RH  024%=      5-min Rain = 0
KPG1 132352Z 08011G16KT 35/11 A2986 RMK A01 T03470111  RH  024%=      5-min Rain = 0
KPG1 132353Z 08013KT 35/11 A2986 RMK A01 T03460112  RH  024%=      5-min Rain = 0
KPG1 132354Z 07013KT 34/11 A2986 RMK A01 T03440114  RH  025%=      5-min Rain = 0
KPG1 132355Z 09010G16KT 34/12 A2986 RMK A01 T03420116  RH  025%=      5-min Rain = 0
KPG1 132356Z 11006G12KT 34/12 A2986 RMK A01 T03410118  RH  026%=      5-min Rain = 0
KPG1 132357Z 07010KT 34/12 A2986 RMK A01 T03400119  RH  026%=      5-min Rain = 0
KPG1 132358Z 08013KT 34/12 A2986 RMK A01 T03400119  RH  026%=      5-min Rain = 0
KPG1 132359Z 07014KT 34/12 A2986 RMK A01 T03360119  RH  027%=      5-min Rain = 0
KPG1 140000Z 07013KT 33/12 A2986 RMK A01 T03340119  RH  027%=      5-min Rain = 0
KPG1 140001Z 07013KT 33/12 A2986 RMK A01 T03330119  RH  027%=      5-min Rain = 0
KPG1 140002Z 07010KT 33/12 A2986 RMK A01 T03320120  RH  028%=      5-min Rain = 0
KPG1 140003Z 07013G19KT 33/12 A2986 RMK A01 T03310121  RH  028%=      5-min Rain = 0
KPG1 140004Z 07012KT 33/12 A2986 RMK A01 T03310123  RH  028%=      5-min Rain = 0
KPG1 140005Z 07013KT 33/12 A2986 RMK A01 T03310123  RH  028%=      5-min Rain = 0
KPG1 140006Z 08012KT 33/12 A2986 RMK A01 T03300124  RH  028%=      5-min Rain = 0
KPG1 140007Z 07010KT 33/12 A2986 RMK A01 T03290124  RH  029%=      5-min Rain = 0
KPG1 140008Z 07009KT 33/12 A2986 RMK A01 T03280124  RH  029%=      5-min Rain = 0
KPG1 140009Z 13010KT 33/12 A2986 RMK A01 T03280124  RH  029%=      5-min Rain = 0
KPG1 140010Z 11009KT 33/12 A2986 RMK A01 T03290124  RH  029%=      5-min Rain = 0
KPG1 140011Z 12010KT 33/12 A2986 RMK A01 T03320124  RH  028%=      5-min Rain = 0
KPG1 140012Z 11011KT 33/12 A2986 RMK A01 T03320124  RH  028%=      5-min Rain = 0
KPG1 140013Z 08008G13KT 33/12 A2986 RMK A01 T03320123  RH  028%=      5-min Rain = 0
KPG1 140014Z 10008KT 33/12 A2987 RMK A01 T03300123  RH  028%=      5-min Rain = 0
KPG1 140015Z 12007KT 33/12 A2986 RMK A01 T03300123  RH  028%=      5-min Rain = 0
KPG1 140016Z 08005KT 33/12 A2986 RMK A01 T03300123  RH  028%=      5-min Rain = 0
KPG1 140017Z 07006KT 33/12 A2986 RMK A01 T03310123  RH  028%=      5-min Rain = 0
KPG1 140018Z 07007KT 33/12 A2986 RMK A01 T03310123  RH  028%=      5-min Rain = 0
KPG1 140019Z 07006KT 33/12 A2986 RMK A01 T03320124  RH  028%=      5-min Rain = 0
KPG1 140020Z 07004KT 33/12 A2986 RMK A01 T03320124  RH  028%=      5-min Rain = 0
KPG1 140021Z 09005KT 33/12 A2986 RMK A01 T03330124  RH  028%=      5-min Rain = 0
KPG1 140022Z 09006KT 33/12 A2986 RMK A01 T03320123  RH  028%=      5-min Rain = 0
KPG1 140023Z 08004KT 33/12 A2986 RMK A01 T03320124  RH  028%=      5-min Rain = 0
KPG1 140024Z 08006KT 33/12 A2986 RMK A01 T03320123  RH  028%=      5-min Rain = 0
KPG1 140025Z 05006G11KT 33/12 A2986 RMK A01 T03330123  RH  028%=      5-min Rain = 0
KPG1 140026Z 09007KT 33/12 A2986 RMK A01 T03330123  RH  028%=      5-min Rain = 0
KPG1 140027Z 07007KT 33/12 A2986 RMK A01 T03340123  RH  028%=      5-min Rain = 0
KPG1 140028Z 07010KT 33/12 A2987 RMK A01 T03340123  RH  028%=      5-min Rain = 0
KPG1 140029Z 07007KT 33/12 A2987 RMK A01 T03320122  RH  028%=      5-min Rain = 0
KPG1 140030Z 06013KT 33/12 A2987 RMK A01 T03310122  RH  028%=      5-min Rain = 0
KPG1 140031Z 07010KT 33/12 A2986 RMK A01 T03310122  RH  028%=      5-min Rain = 0
KPG1 140032Z 10009KT 33/12 A2987 RMK A01 T03300122  RH  028%=      5-min Rain = 0
KPG1 140033Z 11006KT 33/12 A2987 RMK A01 T03310122  RH  028%=      5-min Rain = 0
KPG1 140034Z 13007KT 33/12 A2987 RMK A01 T03310122  RH  028%=      5-min Rain = 0
KPG1 140035Z 11006KT 33/12 A2987 RMK A01 T03300122  RH  028%=      5-min Rain = 0
KPG1 140036Z 08007KT 33/12 A2987 RMK A01 T03300123  RH  028%=      5-min Rain = 0
KPG1 140037Z 06007G12KT 33/12 A2987 RMK A01 T03300123  RH  028%=      5-min Rain = 0
KPG1 140038Z 06013KT 33/12 A2987 RMK A01 T03290122  RH  029%=      5-min Rain = 0
KPG1 140039Z 07012KT 33/12 A2987 RMK A01 T03280123  RH  029%=      5-min Rain = 0
KPG1 140040Z 07009KT 33/12 A2987 RMK A01 T03290123  RH  029%=      5-min Rain = 0
KPG1 140041Z 05011KT 33/12 A2987 RMK A01 T03290123  RH  029%=      5-min Rain = 0
KPG1 140042Z 06012KT 33/12 A2987 RMK A01 T03290122  RH  028%=      5-min Rain = 0
KPG1 140043Z 05011KT 33/12 A2987 RMK A01 T03290122  RH  028%=      5-min Rain = 0
KPG1 140044Z 05012KT 33/12 A2987 RMK A01 T03290121  RH  028%=      5-min Rain = 0
KPG1 140045Z 07013KT 33/12 A2987 RMK A01 T03290121  RH  028%=      5-min Rain = 0
KPG1 140046Z 07011KT 33/12 A2987 RMK A01 T03290121  RH  028%=      5-min Rain = 0
KPG1 140047Z 07009KT 33/12 A2987 RMK A01 T03280121  RH  028%=      5-min Rain = 0
KPG1 140048Z 07007KT 33/12 A2987 RMK A01 T03290122  RH  028%=      5-min Rain = 0
KPG1 140049Z 08007G12KT 33/12 A2988 RMK A01 T03280121  RH  028%=      5-min Rain = 0
KPG1 140050Z 09005KT 33/12 A2988 RMK A01 T03290121  RH  028%=      5-min Rain = 0
KPG1 140051Z 10006KT 33/12 A2988 RMK A01 T03300121  RH  028%=      5-min Rain = 0
KPG1 140052Z 11012G17KT 33/12 A2988 RMK A01 T03290120  RH  028%=      5-min Rain = 0
KPG1 140053Z 11013G18KT 33/12 A2988 RMK A01 T03290116  RH  027%=      5-min Rain = 0
KPG1 140054Z 09010G15KT 33/11 A2988 RMK A01 T03270113  RH  027%=      5-min Rain = 0
KPG1 140055Z 13012G18KT 33/11 A2988 RMK A01 T03270112  RH  027%=      5-min Rain = 0
KPG1 140056Z 12014KT 33/11 A2988 RMK A01 T03270109  RH  026%=      5-min Rain = 0
KPG1 140057Z 11017KT 33/11 A2988 RMK A01 T03260107  RH  026%=      5-min Rain = 0
KPG1 140058Z 12015KT 33/11 A2988 RMK A01 T03250105  RH  026%=      5-min Rain = 0
KPG1 140059Z 13012G18KT 32/11 A2988 RMK A01 T03240105  RH  026%=      5-min Rain = 0
KPG1 140100Z 11010KT 32/10 A2988 RMK A01 T03230104  RH  026%=      5-min Rain = 0
KPG1 140101Z 12013G19KT 32/10 A2988 RMK A01 T03230104  RH  026%=      5-min Rain = 0
KPG1 140102Z 12013KT 32/10 A2989 RMK A01 T03230104  RH  026%=      5-min Rain = 0
KPG1 140103Z 10015G20KT 32/10 A2988 RMK A01 T03230103  RH  026%=      5-min Rain = 0
KPG1 140104Z 11013KT 32/10 A2989 RMK A01 T03220104  RH  026%=      5-min Rain = 0
KPG1 140105Z 11009KT 32/10 A2989 RMK A01 T03210104  RH  026%=      5-min Rain = 0
KPG1 140106Z 10012KT 32/10 A2989 RMK A01 T03200104  RH  026%=      5-min Rain = 0
KPG1 140107Z 11011KT 32/11 A2989 RMK A01 T03190105  RH  027%=      5-min Rain = 0
KPG1 140108Z 12011KT 32/10 A2989 RMK A01 T03190104  RH  027%=      5-min Rain = 0
KPG1 140109Z 12014KT 32/11 A2989 RMK A01 T03190106  RH  027%=      5-min Rain = 0
KPG1 140110Z 11010KT 32/11 A2989 RMK A01 T03190110  RH  028%=      5-min Rain = 0
KPG1 140111Z 12016G21KT 32/11 A2989 RMK A01 T03170111  RH  028%=      5-min Rain = 0
KPG1 140112Z 12013KT 32/11 A2989 RMK A01 T03160112  RH  029%=      5-min Rain = 0
KPG1 140113Z 11012KT 32/11 A2989 RMK A01 T03150113  RH  029%=      5-min Rain = 0
KPG1 140114Z 11018G23KT 32/12 A2989 RMK A01 T03150115  RH  029%=      5-min Rain = 0
KPG1 140115Z 11017G24KT 31/12 A2989 RMK A01 T03140119  RH  030%=      5-min Rain = 0
KPG1 140116Z 10016G22KT 31/12 A2989 RMK A01 T03120120  RH  031%=      5-min Rain = 0
KPG1 140117Z 10017KT 31/12 A2989 RMK A01 T03110122  RH  031%=      5-min Rain = 0
KPG1 140118Z 10013G19KT 31/12 A2989 RMK A01 T03100122  RH  031%=      5-min Rain = 0
KPG1 140119Z 11014KT 31/12 A299 RMK A01 T03100122  RH  032%=      5-min Rain = 0
KPG1 140120Z 11014KT 31/12 A299 RMK A01 T03100124  RH  032%=      5-min Rain = 0
KPG1 140121Z 11014G19KT 31/13 A299 RMK A01 T03090126  RH  032%=      5-min Rain = 0
KPG1 140122Z 12014G19KT 31/13 A299 RMK A01 T03090127  RH  033%=      5-min Rain = 0
KPG1 140123Z 11013KT 31/13 A299 RMK A01 T03080128  RH  033%=      5-min Rain = 0
KPG1 140124Z 12015KT 31/13 A299 RMK A01 T03080131  RH  034%=      5-min Rain = 0
KPG1 140125Z 10014G19KT 31/13 A299 RMK A01 T03060134  RH  035%=      5-min Rain = 0
KPG1 140126Z 11018KT 30/14 A299 RMK A01 T03040136  RH  036%=      5-min Rain = 0
KPG1 140127Z 09015G20KT 30/14 A299 RMK A01 T03020138  RH  037%=      5-min Rain = 0
KPG1 140128Z 10014KT 30/14 A299 RMK A01 T03010141  RH  038%=      5-min Rain = 0
KPG1 140129Z 10022KT 30/15 A299 RMK A01 T02990145  RH  039%=      5-min Rain = 0
KPG1 140130Z 11019G25KT 30/15 A299 RMK A01 T02960145  RH  040%=      5-min Rain = 0
KPG1 140131Z 11019KT 30/15 A299 RMK A01 T02950146  RH  040%=      5-min Rain = 0
KPG1 140132Z 10021G26KT 29/15 A299 RMK A01 T02940147  RH  041%=      5-min Rain = 0
KPG1 140133Z 10018G24KT 29/15 A2991 RMK A01 T02930146  RH  041%=      5-min Rain = 0
KPG1 140134Z 12016G28KT 29/15 A299 RMK A01 T02920145  RH  041%=      5-min Rain = 0
KPG1 140135Z 11018G25KT 29/14 A299 RMK A01 T02910144  RH  040%=      5-min Rain = 0
KPG1 140136Z 11020G25KT 29/14 A2991 RMK A01 T02910143  RH  040%=      5-min Rain = 0
KPG1 140137Z 10019G24KT 29/14 A2991 RMK A01 T02900141  RH  040%=      5-min Rain = 0
KPG1 140138Z 10018G26KT 29/14 A2991 RMK A01 T02890140  RH  040%=      5-min Rain = 0
KPG1 140139Z 10018G26KT 29/14 A2991 RMK A01 T02880139  RH  040%=      5-min Rain = 0
KPG1 140140Z 12021G28KT 29/14 A2991 RMK A01 T02880137  RH  040%=      5-min Rain = 0
KPG1 140141Z 11016G23KT 29/14 A2991 RMK A01 T02880135  RH  039%=      5-min Rain = 0
KPG1 140142Z 11020G30KT 29/13 A2991 RMK A01 T02880134  RH  039%=      5-min Rain = 0
KPG1 140143Z 11016G21KT 29/13 A2991 RMK A01 T02870133  RH  039%=      5-min Rain = 0
KPG1 140144Z 11016G23KT 29/13 A2991 RMK A01 T02870132  RH  038%=      5-min Rain = 0
KPG1 140145Z 11019KT 29/13 A2991 RMK A01 T02870129  RH  038%=      5-min Rain = 0
KPG1 140146Z 11021G26KT 29/13 A299 RMK A01 T02860128  RH  038%=      5-min Rain = 0
KPG1 140147Z 11012G17KT 29/13 A2991 RMK A01 T02860127  RH  037%=      5-min Rain = 0
KPG1 140148Z 11015KT 29/13 A2991 RMK A01 T02860126  RH  037%=      5-min Rain = 0
KPG1 140149Z 12013G20KT 29/12 A2991 RMK A01 T02860124  RH  037%=      5-min Rain = 0
KPG1 140150Z 10013KT 29/12 A2991 RMK A01 T02850123  RH  037%=      5-min Rain = 0
KPG1 140151Z 13018G26KT 29/12 A299 RMK A01 T02850120  RH  036%=      5-min Rain = 0
KPG1 140152Z 12019G27KT 29/12 A299 RMK A01 T02850118  RH  036%=      5-min Rain = 0
KPG1 140153Z 12015KT 28/12 A299 RMK A01 T02840117  RH  035%=      5-min Rain = 0
KPG1 140154Z 13016G21KT 28/12 A2991 RMK A01 T02840115  RH  035%=      5-min Rain = 0
KPG1 140155Z 11018G27KT 28/11 A2991 RMK A01 T02840114  RH  035%=      5-min Rain = 0
KPG1 140156Z 12016G21KT 28/11 A2991 RMK A01 T02840112  RH  034%=      5-min Rain = 0
KPG1 140157Z 13014G19KT 28/11 A2991 RMK A01 T02830111  RH  034%=      5-min Rain = 0
KPG1 140158Z 12019KT 28/11 A2991 RMK A01 T02820111  RH  034%=      5-min Rain = 0
KPG1 140159Z 13014G20KT 28/11 A2991 RMK A01 T02810111  RH  035%=      5-min Rain = 0
KPG1 140200Z 12016G23KT 28/11 A2991 RMK A01 T02800111  RH  035%=      5-min Rain = 0
KPG1 140201Z 13016KT 28/11 A2991 RMK A01 T02790111  RH  035%=      5-min Rain = 0
KPG1 140202Z 11012G20KT 28/11 A2991 RMK A01 T02790111  RH  035%=      5-min Rain = 0
KPG1 140203Z 09008KT 28/11 A2991 RMK A01 T02780111  RH  035%=      5-min Rain = 0
KPG1 140204Z 07012KT 28/11 A2992 RMK A01 T02770111  RH  036%=      5-min Rain = 0
KPG1 140205Z 08007G13KT 28/11 A2991 RMK A01 T02770112  RH  036%=      5-min Rain = 0
KPG1 140206Z 09008KT 28/11 A2991 RMK A01 T02760112  RH  036%=      5-min Rain = 0
KPG1 140207Z 06013KT 28/11 A2992 RMK A01 T02760112  RH  036%=      5-min Rain = 0
KPG1 140208Z 08012KT 28/11 A2992 RMK A01 T02760113  RH  036%=      5-min Rain = 0
KPG1 140209Z 07014G22KT 28/11 A2992 RMK A01 T02760113  RH  036%=      5-min Rain = 0
KPG1 140210Z 08011G16KT 28/11 A2992 RMK A01 T02750113  RH  036%=      5-min Rain = 0
KPG1 140211Z 07015KT 28/11 A2991 RMK A01 T02750113  RH  036%=      5-min Rain = 0
KPG1 140212Z 08015KT 28/11 A2992 RMK A01 T02750113  RH  036%=      5-min Rain = 0
KPG1 140213Z 08014KT 28/11 A2992 RMK A01 T02750113  RH  036%=      5-min Rain = 0
KPG1 140214Z 07012G17KT 28/11 A2992 RMK A01 T02750112  RH  036%=      5-min Rain = 0
KPG1 140215Z 07015KT 28/11 A2991 RMK A01 T02750111  RH  036%=      5-min Rain = 0
KPG1 140216Z 08011G19KT 28/11 A2992 RMK A01 T02750111  RH  036%=      5-min Rain = 0
KPG1 140217Z 08015KT 28/11 A2992 RMK A01 T02750111  RH  036%=      5-min Rain = 0
KPG1 140218Z 08014KT 28/11 A2992 RMK A01 T02750110  RH  036%=      5-min Rain = 0
KPG1 140219Z 06009KT 28/11 A2992 RMK A01 T02750110  RH  036%=      5-min Rain = 0
KPG1 140220Z 07011KT 28/11 A2992 RMK A01 T02750109  RH  036%=      5-min Rain = 0
KPG1 140221Z 08009KT 28/11 A2992 RMK A01 T02750110  RH  036%=      5-min Rain = 0
KPG1 140222Z 06012KT 28/11 A2992 RMK A01 T02750109  RH  035%=      5-min Rain = 0
KPG1 140223Z 07011KT 28/11 A2992 RMK A01 T02750108  RH  035%=      5-min Rain = 0
KPG1 140224Z 05011KT 28/11 A2992 RMK A01 T02750108  RH  035%=      5-min Rain = 0
KPG1 140225Z 05012KT 28/11 A2992 RMK A01 T02750107  RH  035%=      5-min Rain = 0
KPG1 140226Z 05015KT 28/11 A2992 RMK A01 T02760106  RH  035%=      5-min Rain = 0
KPG1 140227Z 05011KT 28/11 A2992 RMK A01 T02760106  RH  035%=      5-min Rain = 0
KPG1 140228Z 05013KT 28/11 A2992 RMK A01 T02760106  RH  035%=      5-min Rain = 0
KPG1 140229Z 05013KT 28/11 A2992 RMK A01 T02760106  RH  035%=      5-min Rain = 0
KPG1 140230Z 06014KT 28/11 A2992 RMK A01 T02760106  RH  035%=      5-min Rain = 0
KPG1 140231Z 04013KT 28/11 A2992 RMK A01 T02760106  RH  035%=      5-min Rain = 0
KPG1 140232Z 05014KT 28/11 A2992 RMK A01 T02760106  RH  034%=      5-min Rain = 0
KPG1 140233Z 05013KT 28/11 A2992 RMK A01 T02760106  RH  034%=      5-min Rain = 0
KPG1 140234Z 05014KT 28/11 A2992 RMK A01 T02760106  RH  034%=      5-min Rain = 0
KPG1 140235Z 06012KT 28/11 A2992 RMK A01 T02760105  RH  034%=      5-min Rain = 0
KPG1 140236Z 06013KT 28/11 A2992 RMK A01 T02760105  RH  034%=      5-min Rain = 0
KPG1 140237Z 06014KT 28/11 A2992 RMK A01 T02760105  RH  034%=      5-min Rain = 0
KPG1 140238Z 05011KT 28/11 A2992 RMK A01 T02750105  RH  034%=      5-min Rain = 0
KPG1 140239Z 05011KT 28/11 A2993 RMK A01 T02750105  RH  034%=      5-min Rain = 0
KPG1 140240Z 05013KT 28/11 A2993 RMK A01 T02750105  RH  035%=      5-min Rain = 0
KPG1 140241Z 05012KT 28/11 A2993 RMK A01 T02750105  RH  035%=      5-min Rain = 0
KPG1 140242Z 04011KT 28/11 A2993 RMK A01 T02750105  RH  035%=      5-min Rain = 0
KPG1 140243Z 04012KT 28/11 A2993 RMK A01 T02750105  RH  035%=      5-min Rain = 0
KPG1 140244Z 05012KT 28/11 A2993 RMK A01 T02750105  RH  035%=      5-min Rain = 0
KPG1 140245Z 04013KT 27/11 A2993 RMK A01 T02740105  RH  035%=      5-min Rain = 0
KPG1 140246Z 05013KT 27/11 A2993 RMK A01 T02740106  RH  035%=      5-min Rain = 0
KPG1 140247Z 04012KT 27/11 A2993 RMK A01 T02740106  RH  035%=      5-min Rain = 0
KPG1 140248Z 05013KT 27/11 A2993 RMK A01 T02740106  RH  035%=      5-min Rain = 0
KPG1 140249Z 06013KT 27/11 A2993 RMK A01 T02740106  RH  035%=      5-min Rain = 0
KPG1 140250Z 05011KT 27/11 A2993 RMK A01 T02740107  RH  035%=      5-min Rain = 0
KPG1 140251Z 05011KT 27/11 A2993 RMK A01 T02730107  RH  035%=      5-min Rain = 0
KPG1 140252Z 06011KT 27/11 A2993 RMK A01 T02730107  RH  035%=      5-min Rain = 0
KPG1 140253Z 06009KT 27/11 A2993 RMK A01 T02730107  RH  035%=      5-min Rain = 0
KPG1 140254Z 06009KT 27/11 A2993 RMK A01 T02730107  RH  036%=      5-min Rain = 0
KPG1 140255Z 07008KT 27/11 A2993 RMK A01 T02730107  RH  036%=      5-min Rain = 0
KPG1 140256Z 07010KT 27/11 A2993 RMK A01 T02720107  RH  036%=      5-min Rain = 0
KPG1 140257Z 08010KT 27/11 A2993 RMK A01 T02720108  RH  036%=      5-min Rain = 0
KPG1 140258Z 05009KT 27/11 A2993 RMK A01 T02720108  RH  036%=      5-min Rain = 0
KPG1 140259Z 07011KT 27/11 A2993 RMK A01 T02720108  RH  036%=      5-min Rain = 0
KPG1 140300Z 06011KT 27/11 A2993 RMK A01 T02720108  RH  036%=      5-min Rain = 0
KPG1 140301Z 06011KT 27/11 A2993 RMK A01 T02720108  RH  036%=      5-min Rain = 0
KPG1 140302Z 05011KT 27/11 A2993 RMK A01 T02710108  RH  036%=      5-min Rain = 0
KPG1 140303Z 05010KT 27/11 A2993 RMK A01 T02710108  RH  036%=      5-min Rain = 0
KPG1 140304Z 06011KT 27/11 A2993 RMK A01 T02710107  RH  036%=      5-min Rain = 0
KPG1 140305Z 06011KT 27/11 A2993 RMK A01 T02710107  RH  036%=      5-min Rain = 0
KPG1 140306Z 05010KT 27/11 A2993 RMK A01 T02710107  RH  036%=      5-min Rain = 0
KPG1 140307Z 03011KT 27/11 A2993 RMK A01 T02710107  RH  036%=      5-min Rain = 0
KPG1 140308Z 03013KT 27/11 A2993 RMK A01 T02710107  RH  036%=      5-min Rain = 0
KPG1 140309Z 05010KT 27/11 A2993 RMK A01 T02710107  RH  036%=      5-min Rain = 0
KPG1 140310Z 05010KT 27/11 A2993 RMK A01 T02710107  RH  036%=      5-min Rain = 0
KPG1 140311Z 06010KT 27/11 A2993 RMK A01 T02710107  RH  036%=      5-min Rain = 0
KPG1 140312Z 06010KT 27/11 A2993 RMK A01 T02710107  RH  036%=      5-min Rain = 0
KPG1 140313Z 06010KT 27/11 A2993 RMK A01 T02700106  RH  036%=      5-min Rain = 0
KPG1 140314Z 05010KT 27/11 A2993 RMK A01 T02710106  RH  036%=      5-min Rain = 0
KPG1 140315Z 05011KT 27/11 A2993 RMK A01 T02710106  RH  036%=      5-min Rain = 0
KPG1 140316Z 05011KT 27/11 A2993 RMK A01 T02710106  RH  036%=      5-min Rain = 0
KPG1 140317Z 05009KT 27/11 A2993 RMK A01 T02710106  RH  035%=      5-min Rain = 0
KPG1 140318Z 05007KT 27/11 A2993 RMK A01 T02710106  RH  036%=      5-min Rain = 0
KPG1 140319Z 05009KT 27/11 A2993 RMK A01 T02700105  RH  036%=      5-min Rain = 0
KPG1 140320Z 05011KT 27/11 A2993 RMK A01 T02700105  RH  035%=      5-min Rain = 0
KPG1 140321Z 05012KT 27/11 A2993 RMK A01 T02700105  RH  035%=      5-min Rain = 0
KPG1 140322Z 05012KT 27/11 A2993 RMK A01 T02710105  RH  035%=      5-min Rain = 0
KPG1 140323Z 05010KT 27/11 A2993 RMK A01 T02710105  RH  035%=      5-min Rain = 0
KPG1 140324Z 05011KT 27/11 A2993 RMK A01 T02710105  RH  035%=      5-min Rain = 0
KPG1 140325Z 05010KT 27/11 A2993 RMK A01 T02710105  RH  035%=      5-min Rain = 0
KPG1 140326Z 05012KT 27/11 A2993 RMK A01 T02700105  RH  035%=      5-min Rain = 0
KPG1 140327Z 05011KT 27/11 A2993 RMK A01 T02710105  RH  035%=      5-min Rain = 0
KPG1 140328Z 05011KT 27/11 A2993 RMK A01 T02700105  RH  035%=      5-min Rain = 0
KPG1 140329Z 05010KT 27/11 A2993 RMK A01 T02700105  RH  035%=      5-min Rain = 0
KPG1 140330Z 05011KT 27/11 A2993 RMK A01 T02700105  RH  035%=      5-min Rain = 0
KPG1 140331Z 05011KT 27/10 A2993 RMK A01 T02700104  RH  035%=      5-min Rain = 0
KPG1 140332Z 05012KT 27/10 A2993 RMK A01 T02700104  RH  035%=      5-min Rain = 0
KPG1 140333Z 05011KT 27/10 A2993 RMK A01 T02700104  RH  035%=      5-min Rain = 0
KPG1 140334Z 05012KT 27/10 A2993 RMK A01 T02700104  RH  035%=      5-min Rain = 0
KPG1 140335Z 05012KT 27/10 A2993 RMK A01 T02710104  RH  035%=      5-min Rain = 0
KPG1 140336Z 05011KT 27/10 A2993 RMK A01 T02710104  RH  035%=      5-min Rain = 0
KPG1 140337Z 04011KT 27/10 A2993 RMK A01 T02710104  RH  035%=      5-min Rain = 0
KPG1 140338Z 04012KT 27/11 A2993 RMK A01 T02710105  RH  035%=      5-min Rain = 0
KPG1 140339Z 05012KT 27/11 A2993 RMK A01 T02710105  RH  035%=      5-min Rain = 0
KPG1 140340Z 05013KT 27/11 A2993 RMK A01 T02710105  RH  035%=      5-min Rain = 0
KPG1 140341Z 05012KT 27/11 A2993 RMK A01 T02710105  RH  035%=      5-min Rain = 0
KPG1 140342Z 05011KT 27/11 A2993 RMK A01 T02710105  RH  035%=      5-min Rain = 0
KPG1 140343Z 05012KT 27/11 A2993 RMK A01 T02710105  RH  035%=      5-min Rain = 0
KPG1 140344Z 05011KT 27/11 A2993 RMK A01 T02710105  RH  035%=      5-min Rain = 0
KPG1 140345Z 04011KT 27/11 A2993 RMK A01 T02710105  RH  035%=      5-min Rain = 0
KPG1 140346Z 04010KT 27/11 A2993 RMK A01 T02710105  RH  035%=      5-min Rain = 0
KPG1 140347Z 04010KT 27/10 A2993 RMK A01 T02700104  RH  035%=      5-min Rain = 0
KPG1 140348Z 04010KT 27/10 A2993 RMK A01 T02690103  RH  035%=      5-min Rain = 0
KPG1 140349Z 04009KT 27/10 A2993 RMK A01 T02690103  RH  036%=      5-min Rain = 0
KPG1 140350Z 03010KT 27/10 A2993 RMK A01 T02680103  RH  036%=      5-min Rain = 0
KPG1 140351Z 03011KT 27/10 A2993 RMK A01 T02670103  RH  036%=      5-min Rain = 0
KPG1 140352Z 02011KT 27/10 A2993 RMK A01 T02660103  RH  036%=      5-min Rain = 0
KPG1 140353Z 03012KT 27/10 A2993 RMK A01 T02660103  RH  036%=      5-min Rain = 0
KPG1 140354Z 03011KT 27/10 A2993 RMK A01 T02650103  RH  036%=      5-min Rain = 0
KPG1 140355Z 03011KT 27/10 A2993 RMK A01 T02650102  RH  036%=      5-min Rain = 0
KPG1 140356Z 03010KT 26/10 A2993 RMK A01 T02640102  RH  036%=      5-min Rain = 0
KPG1 140357Z 03010KT 26/10 A2993 RMK A01 T02640102  RH  036%=      5-min Rain = 0
KPG1 140358Z 02010KT 26/10 A2993 RMK A01 T02640103  RH  036%=      5-min Rain = 0
KPG1 140359Z 01010KT 26/10 A2993 RMK A01 T02640103  RH  036%=      5-min Rain = 0
KPG1 140400Z 01010KT 27/10 A2993 RMK A01 T02650103  RH  036%=      5-min Rain = 0
KPG1 140401Z 01010KT 27/10 A2993 RMK A01 T02660103  RH  036%=      5-min Rain = 0
KPG1 140402Z 01009KT 27/10 A2993 RMK A01 T02670103  RH  036%=      5-min Rain = 0
KPG1 140403Z 02009KT 27/10 A2993 RMK A01 T02670103  RH  036%=      5-min Rain = 0
KPG1 140404Z 02008KT 27/10 A2993 RMK A01 T02660103  RH  036%=      5-min Rain = 0
KPG1 140405Z 03008KT 27/10 A2993 RMK A01 T02660102  RH  036%=      5-min Rain = 0
KPG1 140406Z 03008KT 27/10 A2993 RMK A01 T02650101  RH  036%=      5-min Rain = 0
KPG1 140407Z 03009KT 26/10 A2993 RMK A01 T02630101  RH  036%=      5-min Rain = 0
KPG1 140408Z 03011KT 26/10 A2993 RMK A01 T02630102  RH  036%=      5-min Rain = 0
KPG1 140409Z 03011KT 26/10 A2993 RMK A01 T02640102  RH  036%=      5-min Rain = 0
KPG1 140410Z 03011KT 27/10 A2993 RMK A01 T02650102  RH  036%=      5-min Rain = 0
KPG1 140411Z 03011KT 27/10 A2993 RMK A01 T02650102  RH  036%=      5-min Rain = 0
KPG1 140412Z 03011KT 27/10 A2993 RMK A01 T02650103  RH  036%=      5-min Rain = 0
KPG1 140413Z 03011KT 27/10 A2993 RMK A01 T02650103  RH  036%=      5-min Rain = 0
KPG1 140414Z 02011KT 27/10 A2993 RMK A01 T02650103  RH  036%=      5-min Rain = 0
KPG1 140415Z 03011KT 27/10 A2993 RMK A01 T02650103  RH  036%=      5-min Rain = 0
KPG1 140416Z 03011KT 27/10 A2993 RMK A01 T02660103  RH  036%=      5-min Rain = 0
KPG1 140417Z 03011KT 27/10 A2994 RMK A01 T02670103  RH  036%=      5-min Rain = 0
KPG1 140418Z 03011KT 27/10 A2994 RMK A01 T02680104  RH  036%=      5-min Rain = 0
KPG1 140419Z 03012KT 27/10 A2994 RMK A01 T02670103  RH  036%=      5-min Rain = 0
KPG1 140420Z 03011KT 27/10 A2994 RMK A01 T02680103  RH  036%=      5-min Rain = 0
KPG1 140421Z 03011KT 27/10 A2994 RMK A01 T02670103  RH  036%=      5-min Rain = 0
KPG1 140422Z 03011KT 27/10 A2994 RMK A01 T02670103  RH  036%=      5-min Rain = 0
KPG1 140423Z 03010KT 27/10 A2994 RMK A01 T02660103  RH  036%=      5-min Rain = 0
KPG1 140424Z 03010KT 27/10 A2994 RMK A01 T02660103  RH  036%=      5-min Rain = 0
KPG1 140425Z 03008KT 27/10 A2994 RMK A01 T02660103  RH  036%=      5-min Rain = 0
KPG1 140426Z 04007KT 27/10 A2994 RMK A01 T02650102  RH  036%=      5-min Rain = 0
KPG1 140427Z 03008KT 26/10 A2994 RMK A01 T02640102  RH  036%=      5-min Rain = 0
KPG1 140428Z 04009KT 26/10 A2994 RMK A01 T02640102  RH  036%=      5-min Rain = 0
KPG1 140429Z 04009KT 26/10 A2994 RMK A01 T02640102  RH  036%=      5-min Rain = 0
KPG1 140430Z 04010KT 26/10 A2994 RMK A01 T02640103  RH  036%=      5-min Rain = 0
KPG1 140431Z 05010KT 27/10 A2994 RMK A01 T02650104  RH  036%=      5-min Rain = 0
KPG1 140432Z 05010KT 27/10 A2994 RMK A01 T02660103  RH  036%=      5-min Rain = 0
KPG1 140433Z 04009KT 27/10 A2994 RMK A01 T02660103  RH  036%=      5-min Rain = 0
KPG1 140434Z 03009KT 27/10 A2994 RMK A01 T02650102  RH  036%=      5-min Rain = 0
KPG1 140435Z 03010KT 26/10 A2994 RMK A01 T02640102  RH  036%=      5-min Rain = 0
KPG1 140436Z 02010KT 26/10 A2994 RMK A01 T02630102  RH  036%=      5-min Rain = 0
KPG1 140437Z 03010KT 26/10 A2994 RMK A01 T02620102  RH  037%=      5-min Rain = 0
KPG1 140438Z 03010KT 26/10 A2994 RMK A01 T02630103  RH  037%=      5-min Rain = 0
KPG1 140439Z 03011KT 26/10 A2994 RMK A01 T02630104  RH  037%=      5-min Rain = 0
KPG1 140440Z 03010KT 26/10 A2994 RMK A01 T02640104  RH  037%=      5-min Rain = 0
KPG1 140441Z 02009KT 26/10 A2994 RMK A01 T02640104  RH  037%=      5-min Rain = 0
KPG1 140442Z 02010KT 26/10 A2994 RMK A01 T02640104  RH  036%=      5-min Rain = 0
KPG1 140443Z 02010KT 26/10 A2995 RMK A01 T02640104  RH  037%=      5-min Rain = 0
KPG1 140444Z 02011KT 26/10 A2995 RMK A01 T02640104  RH  037%=      5-min Rain = 0
KPG1 140445Z 02011KT 26/10 A2995 RMK A01 T02640104  RH  037%=      5-min Rain = 0
KPG1 140446Z 03011KT 26/11 A2995 RMK A01 T02640105  RH  037%=      5-min Rain = 0
KPG1 140447Z 03010KT 26/11 A2995 RMK A01 T02630105  RH  037%=      5-min Rain = 0
KPG1 140448Z 02009KT 26/11 A2995 RMK A01 T02630105  RH  037%=      5-min Rain = 0
KPG1 140449Z 02009KT 26/11 A2995 RMK A01 T02620105  RH  037%=      5-min Rain = 0
KPG1 140450Z 02010KT 26/11 A2995 RMK A01 T02620105  RH  037%=      5-min Rain = 0
KPG1 140451Z 02011KT 26/11 A2995 RMK A01 T02610106  RH  038%=      5-min Rain = 0
KPG1 140452Z 02011KT 26/11 A2995 RMK A01 T02610106  RH  038%=      5-min Rain = 0
KPG1 140453Z 02011KT 26/11 A2995 RMK A01 T02600107  RH  038%=      5-min Rain = 0
KPG1 140454Z 02011KT 26/11 A2995 RMK A01 T02600108  RH  039%=      5-min Rain = 0
KPG1 140455Z 02011KT 26/11 A2995 RMK A01 T02590109  RH  039%=      5-min Rain = 0
KPG1 140456Z 02012KT 26/11 A2994 RMK A01 T02590109  RH  039%=      5-min Rain = 0
KPG1 140457Z 02012KT 26/11 A2994 RMK A01 T02590109  RH  039%=      5-min Rain = 0
KPG1 140458Z 01011KT 26/11 A2995 RMK A01 T02580109  RH  039%=      5-min Rain = 0
KPG1 140459Z 01012KT 26/11 A2995 RMK A01 T02580109  RH  039%=      5-min Rain = 0

Page generated in 0.0706 seconds.